Observation data for Caprock Canyons on 01/19/2019      Previous  Date  Next       Current Mesonet Observations  Soil Data  Daily Summary Page  Observations in Plain Language
KQU1 190600Z 35028G36KT 01/M03 A3002 RMK A01 T00121025  RH  076%=      5-min Rain = 0
KQU1 190601Z 35021G29KT 01/M03 A3002 RMK A01 T00121025  RH  076%=      5-min Rain = 0
KQU1 190602Z 36019G28KT 01/M03 A3002 RMK A01 T00121025  RH  077%=      5-min Rain = 0
KQU1 190603Z 34020G27KT 01/M03 A3002 RMK A01 T00121025  RH  077%=      5-min Rain = 0
KQU1 190604Z 34026G32KT 01/M03 A3002 RMK A01 T00121026  RH  076%=      5-min Rain = 0
KQU1 190605Z 36017G22KT 01/M02 A3002 RMK A01 T00121024  RH  077%=      5-min Rain = 0
KQU1 190606Z 34022G33KT 01/M03 A3003 RMK A01 T00121025  RH  076%=      5-min Rain = 0
KQU1 190607Z 35023G31KT 01/M03 A3003 RMK A01 T00121025  RH  076%=      5-min Rain = 0
KQU1 190608Z 35018G23KT 01/M02 A3003 RMK A01 T00131024  RH  077%=      5-min Rain = 0
KQU1 190609Z 35017G24KT 01/M02 A3003 RMK A01 T00131024  RH  076%=      5-min Rain = 0
KQU1 190610Z 34023G28KT 01/M03 A3003 RMK A01 T00131025  RH  076%=      5-min Rain = 0
KQU1 190611Z 35019G24KT 01/M03 A3003 RMK A01 T00131025  RH  076%=      5-min Rain = 0
KQU1 190612Z 35016KT 01/M03 A3003 RMK A01 T00131025  RH  076%=      5-min Rain = 0
KQU1 190613Z 35022G28KT 01/M02 A3003 RMK A01 T00131024  RH  076%=      5-min Rain = 0
KQU1 190614Z 35022G30KT 01/M02 A3003 RMK A01 T00131024  RH  076%=      5-min Rain = 0
KQU1 190615Z 35020G28KT 01/M02 A3003 RMK A01 T00141024  RH  076%=      5-min Rain = 0
KQU1 190616Z 34020G27KT 01/M02 A3003 RMK A01 T00141024  RH  076%=      5-min Rain = 0
KQU1 190617Z 34020G28KT 01/M03 A3004 RMK A01 T00141025  RH  076%=      5-min Rain = 0
KQU1 190618Z 35019G27KT 01/M02 A3003 RMK A01 T00141024  RH  076%=      5-min Rain = 0
KQU1 190619Z 34023G29KT 01/M02 A3004 RMK A01 T00141024  RH  076%=      5-min Rain = 0
KQU1 190620Z 35021KT 01/M02 A3004 RMK A01 T00141024  RH  076%=      5-min Rain = 0
KQU1 190621Z 35019G28KT 01/M02 A3004 RMK A01 T00141024  RH  076%=      5-min Rain = 0
KQU1 190622Z 34016G21KT 01/M02 A3004 RMK A01 T00141023  RH  076%=      5-min Rain = 0
KQU1 190623Z 34015G20KT 01/M02 A3004 RMK A01 T00141023  RH  076%=      5-min Rain = 0
KQU1 190624Z 34018G24KT 01/M02 A3004 RMK A01 T00141022  RH  077%=      5-min Rain = 0
KQU1 190625Z 35022G28KT 01/M02 A3004 RMK A01 T00141024  RH  076%=      5-min Rain = 0
KQU1 190626Z 35021G27KT 01/M02 A3004 RMK A01 T00141023  RH  076%=      5-min Rain = 0
KQU1 190627Z 34020G27KT 01/M02 A3004 RMK A01 T00141024  RH  076%=      5-min Rain = 0
KQU1 190628Z 34022G29KT 01/M02 A3004 RMK A01 T00141024  RH  076%=      5-min Rain = 0
KQU1 190629Z 34021G27KT 01/M02 A3004 RMK A01 T00141024  RH  076%=      5-min Rain = 0
KQU1 190630Z 35025G32KT 01/M02 A3004 RMK A01 T00141023  RH  076%=      5-min Rain = 0
KQU1 190631Z 35026G33KT 01/M02 A3004 RMK A01 T00141023  RH  076%=      5-min Rain = 0
KQU1 190632Z 36024G30KT 01/M02 A3004 RMK A01 T00141023  RH  076%=      5-min Rain = 0
KQU1 190633Z 34021G27KT 02/M02 A3004 RMK A01 T00151023  RH  076%=      5-min Rain = 0
KQU1 190634Z 34021G26KT 02/M02 A3004 RMK A01 T00151023  RH  076%=      5-min Rain = 0
KQU1 190635Z 36021G28KT 02/M02 A3005 RMK A01 T00151022  RH  076%=      5-min Rain = 0
KQU1 190636Z 34023G34KT 02/M02 A3005 RMK A01 T00151022  RH  076%=      5-min Rain = 0
KQU1 190637Z 35022G28KT 02/M02 A3005 RMK A01 T00151022  RH  076%=      5-min Rain = 0
KQU1 190638Z 00022G30KT 02/M02 A3005 RMK A01 T00151022  RH  076%=      5-min Rain = 0
KQU1 190639Z 35023G30KT 02/M02 A3005 RMK A01 T00151022  RH  076%=      5-min Rain = 0
KQU1 190640Z 33023G35KT 02/M02 A3005 RMK A01 T00151023  RH  076%=      5-min Rain = 0
KQU1 190641Z 34019G25KT 02/M02 A3005 RMK A01 T00151023  RH  076%=      5-min Rain = 0
KQU1 190642Z 34021KT 02/M02 A3005 RMK A01 T00151023  RH  076%=      5-min Rain = 0
KQU1 190643Z 35019G27KT 02/M02 A3005 RMK A01 T00151022  RH  076%=      5-min Rain = 0
KQU1 190644Z 34018G25KT 02/M02 A3005 RMK A01 T00151022  RH  076%=      5-min Rain = 0
KQU1 190645Z 35021G28KT 02/M02 A3005 RMK A01 T00151022  RH  076%=      5-min Rain = 0
KQU1 190646Z 34020G27KT 02/M02 A3005 RMK A01 T00151022  RH  076%=      5-min Rain = 0
KQU1 190647Z 35022G27KT 02/M02 A3005 RMK A01 T00151022  RH  076%=      5-min Rain = 0
KQU1 190648Z 35019G28KT 02/M02 A3006 RMK A01 T00151022  RH  076%=      5-min Rain = 0
KQU1 190649Z 35021G28KT 02/M02 A3006 RMK A01 T00151021  RH  077%=      5-min Rain = 0
KQU1 190650Z 36022G30KT 02/M02 A3005 RMK A01 T00151022  RH  076%=      5-min Rain = 0
KQU1 190651Z 35019G28KT 02/M02 A3006 RMK A01 T00161021  RH  077%=      5-min Rain = 0
KQU1 190652Z 34021KT 02/M02 A3006 RMK A01 T00161021  RH  077%=      5-min Rain = 0
KQU1 190653Z 34018G26KT 02/M02 A3006 RMK A01 T00161021  RH  076%=      5-min Rain = 0
KQU1 190654Z 34021G27KT 02/M02 A3006 RMK A01 T00161021  RH  076%=      5-min Rain = 0
KQU1 190655Z 34020G25KT 02/M02 A3006 RMK A01 T00161022  RH  076%=      5-min Rain = 0
KQU1 190656Z 35019G25KT 02/M02 A3006 RMK A01 T00161021  RH  077%=      5-min Rain = 0
KQU1 190657Z 34020KT 02/M02 A3006 RMK A01 T00161022  RH  076%=      5-min Rain = 0
KQU1 190658Z 34026G32KT 02/M02 A3006 RMK A01 T00161022  RH  076%=      5-min Rain = 0
KQU1 190659Z 34022G31KT 02/M02 A3006 RMK A01 T00161022  RH  076%=      5-min Rain = 0
KQU1 190700Z 35023G28KT 02/M02 A3006 RMK A01 T00161022  RH  076%=      5-min Rain = 0
KQU1 190701Z 35019G25KT 02/M02 A3006 RMK A01 T00161022  RH  076%=      5-min Rain = 0
KQU1 190702Z 35018G25KT 02/M02 A3006 RMK A01 T00161021  RH  076%=      5-min Rain = 0
KQU1 190703Z 35022G27KT 02/M02 A3006 RMK A01 T00161021  RH  076%=      5-min Rain = 0
KQU1 190704Z 35023KT 02/M02 A3006 RMK A01 T00171022  RH  076%=      5-min Rain = 0
KQU1 190705Z 35019G25KT 02/M02 A3006 RMK A01 T00171021  RH  076%=      5-min Rain = 0
KQU1 190706Z 35019G25KT 02/M02 A3006 RMK A01 T00171020  RH  076%=      5-min Rain = 0
KQU1 190707Z 35021KT 02/M02 A3006 RMK A01 T00171021  RH  076%=      5-min Rain = 0
KQU1 190708Z 35021G28KT 02/M02 A3006 RMK A01 T00171021  RH  076%=      5-min Rain = 0
KQU1 190709Z 35016KT 02/M02 A3006 RMK A01 T00171021  RH  076%=      5-min Rain = 0
KQU1 190710Z 35014G19KT 02/M02 A3006 RMK A01 T00171021  RH  076%=      5-min Rain = 0
KQU1 190711Z 34014G19KT 02/M02 A3006 RMK A01 T00171021  RH  076%=      5-min Rain = 0
KQU1 190712Z 35014G19KT 02/M02 A3006 RMK A01 T00171020  RH  077%=      5-min Rain = 0
KQU1 190713Z 34015G21KT 02/M02 A3006 RMK A01 T00171020  RH  077%=      5-min Rain = 0
KQU1 190714Z 36014G19KT 02/M02 A3006 RMK A01 T00171019  RH  077%=      5-min Rain = 0
KQU1 190715Z 34015G20KT 02/M02 A3006 RMK A01 T00171019  RH  077%=      5-min Rain = 0
KQU1 190716Z 35016KT 02/M02 A3006 RMK A01 T00171020  RH  077%=      5-min Rain = 0
KQU1 190717Z 35015KT 02/M02 A3006 RMK A01 T00171019  RH  077%=      5-min Rain = 0
KQU1 190718Z 35014KT 02/M02 A3006 RMK A01 T00171018  RH  077%=      5-min Rain = 0
KQU1 190719Z 35013G19KT 02/M02 A3006 RMK A01 T00171018  RH  078%=      5-min Rain = 0
KQU1 190720Z 35013KT 02/M02 A3006 RMK A01 T00171019  RH  077%=      5-min Rain = 0
KQU1 190721Z 35016G22KT 02/M02 A3006 RMK A01 T00171018  RH  077%=      5-min Rain = 0
KQU1 190722Z 35016G22KT 02/M02 A3006 RMK A01 T00171018  RH  077%=      5-min Rain = 0
KQU1 190723Z 34017KT 02/M02 A3006 RMK A01 T00171019  RH  077%=      5-min Rain = 0
KQU1 190724Z 34012KT 02/M02 A3006 RMK A01 T00171018  RH  077%=      5-min Rain = 0
KQU1 190725Z 34012KT 02/M02 A3006 RMK A01 T00181017  RH  078%=      5-min Rain = 0
KQU1 190726Z 34015KT 02/M02 A3006 RMK A01 T00181018  RH  077%=      5-min Rain = 0
KQU1 190727Z 34014KT 02/M02 A3006 RMK A01 T00181018  RH  077%=      5-min Rain = 0
KQU1 190728Z 35014G19KT 02/M02 A3006 RMK A01 T00181018  RH  077%=      5-min Rain = 0
KQU1 190729Z 34016G21KT 02/M02 A3006 RMK A01 T00181018  RH  077%=      5-min Rain = 0
KQU1 190730Z 34014KT 02/M02 A3006 RMK A01 T00181017  RH  077%=      5-min Rain = 0
KQU1 190731Z 34011KT 02/M02 A3006 RMK A01 T00181017  RH  078%=      5-min Rain = 0
KQU1 190732Z 34011G18KT 02/M02 A3006 RMK A01 T00181016  RH  078%=      5-min Rain = 0
KQU1 190733Z 35013G21KT 02/M02 A3006 RMK A01 T00181016  RH  078%=      5-min Rain = 0
KQU1 190734Z 35014KT 02/M02 A3006 RMK A01 T00191015  RH  078%=      5-min Rain = 0
KQU1 190735Z 35015KT 02/M02 A3006 RMK A01 T00191016  RH  078%=      5-min Rain = 0
KQU1 190736Z 34016G22KT 02/M02 A3006 RMK A01 T00191016  RH  078%=      5-min Rain = 0
KQU1 190737Z 34017G23KT 02/M02 A3006 RMK A01 T00191017  RH  077%=      5-min Rain = 0
KQU1 190738Z 34013KT 02/M02 A3006 RMK A01 T00191016  RH  078%=      5-min Rain = 0
KQU1 190739Z 35016KT 02/M02 A3006 RMK A01 T00191016  RH  078%=      5-min Rain = 0
KQU1 190740Z 35017G24KT 02/M02 A3006 RMK A01 T00191016  RH  077%=      5-min Rain = 0
KQU1 190741Z 34016G22KT 02/M02 A3006 RMK A01 T00201016  RH  077%=      5-min Rain = 0
KQU1 190742Z 35015G20KT 02/M02 A3006 RMK A01 T00201017  RH  077%=      5-min Rain = 0
KQU1 190743Z 35015KT 02/M02 A3006 RMK A01 T00201016  RH  077%=      5-min Rain = 0
KQU1 190744Z 34016G21KT 02/M02 A3006 RMK A01 T00201016  RH  077%=      5-min Rain = 0
KQU1 190745Z 32012KT 02/M02 A3006 RMK A01 T00201016  RH  077%=      5-min Rain = 0
KQU1 190746Z 34014KT 02/M02 A3006 RMK A01 T00201016  RH  077%=      5-min Rain = 0
KQU1 190747Z 34012G18KT 02/M02 A3006 RMK A01 T00201016  RH  077%=      5-min Rain = 0
KQU1 190748Z 35015G20KT 02/M02 A3007 RMK A01 T00201017  RH  076%=      5-min Rain = 0
KQU1 190749Z 34016G21KT 02/M02 A3006 RMK A01 T00201018  RH  076%=      5-min Rain = 0
KQU1 190750Z 33013KT 02/M02 A3007 RMK A01 T00211018  RH  076%=      5-min Rain = 0
KQU1 190751Z 34014G19KT 02/M02 A3007 RMK A01 T00211018  RH  075%=      5-min Rain = 0
KQU1 190752Z 35019G29KT 02/M02 A3007 RMK A01 T00211020  RH  074%=      5-min Rain = 0
KQU1 190753Z 35022G28KT 02/M02 A3007 RMK A01 T00211020  RH  074%=      5-min Rain = 0
KQU1 190754Z 35024G29KT 02/M02 A3007 RMK A01 T00221021  RH  074%=      5-min Rain = 0
KQU1 190755Z 34016G21KT 02/M02 A3007 RMK A01 T00221022  RH  073%=      5-min Rain = 0
KQU1 190756Z 34018KT 02/M02 A3007 RMK A01 T00221022  RH  073%=      5-min Rain = 0
KQU1 190757Z 34019G25KT 02/M02 A3007 RMK A01 T00221022  RH  073%=      5-min Rain = 0
KQU1 190758Z 34016G22KT 02/M02 A3007 RMK A01 T00211022  RH  073%=      5-min Rain = 0
KQU1 190759Z 34015G22KT 02/M02 A3007 RMK A01 T00211022  RH  073%=      5-min Rain = 0
KQU1 190800Z 33016KT 02/M02 A3007 RMK A01 T00211022  RH  073%=      5-min Rain = 0
KQU1 190801Z 33013G18KT 02/M02 A3007 RMK A01 T00211022  RH  073%=      5-min Rain = 0
KQU1 190802Z 35014KT 02/M02 A3008 RMK A01 T00211022  RH  073%=      5-min Rain = 0
KQU1 190803Z 36018G26KT 02/M02 A3007 RMK A01 T00211022  RH  073%=      5-min Rain = 0
KQU1 190804Z 34015G20KT 02/M02 A3008 RMK A01 T00211022  RH  073%=      5-min Rain = 0
KQU1 190805Z 33010G16KT 02/M02 A3008 RMK A01 T00201022  RH  074%=      5-min Rain = 0
KQU1 190806Z 32016G21KT 02/M02 A3008 RMK A01 T00201024  RH  073%=      5-min Rain = 0
KQU1 190807Z 32013KT 02/M02 A3008 RMK A01 T00191024  RH  073%=      5-min Rain = 0
KQU1 190808Z 32018G23KT 02/M03 A3008 RMK A01 T00191025  RH  072%=      5-min Rain = 0
KQU1 190809Z 32015G23KT 02/M03 A3008 RMK A01 T00181026  RH  073%=      5-min Rain = 0
KQU1 190810Z 32017KT 02/M03 A3008 RMK A01 T00181027  RH  072%=      5-min Rain = 0
KQU1 190811Z 34023G28KT 02/M03 A3008 RMK A01 T00181029  RH  071%=      5-min Rain = 0
KQU1 190812Z 33020KT 02/M03 A3008 RMK A01 T00171030  RH  071%=      5-min Rain = 0
KQU1 190813Z 33023G30KT 02/M03 A3008 RMK A01 T00161031  RH  071%=      5-min Rain = 0
KQU1 190814Z 33023KT 02/M03 A3009 RMK A01 T00151032  RH  071%=      5-min Rain = 0
KQU1 190815Z 33025G35KT 01/M03 A3009 RMK A01 T00141033  RH  071%=      5-min Rain = 0
KQU1 190816Z 32023G30KT 01/M03 A3009 RMK A01 T00131034  RH  071%=      5-min Rain = 0
KQU1 190817Z 32025G35KT 01/M04 A3009 RMK A01 T00121035  RH  071%=      5-min Rain = 0
KQU1 190818Z 33025G33KT 01/M04 A3009 RMK A01 T00121035  RH  071%=      5-min Rain = 0
KQU1 190819Z 34021G26KT 01/M04 A3009 RMK A01 T00121035  RH  071%=      5-min Rain = 0
KQU1 190820Z 34020G26KT 01/M04 A3009 RMK A01 T00121035  RH  071%=      5-min Rain = 0
KQU1 190821Z 34019G27KT 01/M04 A3009 RMK A01 T00121035  RH  071%=      5-min Rain = 0
KQU1 190822Z 33015G28KT 01/M04 A3009 RMK A01 T00111035  RH  071%=      5-min Rain = 0
KQU1 190823Z 33022G27KT 01/M04 A3009 RMK A01 T00111037  RH  071%=      5-min Rain = 0
KQU1 190824Z 34016G24KT 01/M04 A3009 RMK A01 T00111036  RH  071%=      5-min Rain = 0
KQU1 190825Z 32021G28KT 01/M04 A3009 RMK A01 T00101037  RH  071%=      5-min Rain = 0
KQU1 190826Z 33021G29KT 01/M04 A3009 RMK A01 T00101038  RH  071%=      5-min Rain = 0
KQU1 190827Z 33023G29KT 01/M04 A301 RMK A01 T00101037  RH  071%=      5-min Rain = 0
KQU1 190828Z 33025G32KT 01/M04 A3009 RMK A01 T00091039  RH  070%=      5-min Rain = 0
KQU1 190829Z 33020G29KT 01/M04 A3009 RMK A01 T00091039  RH  070%=      5-min Rain = 0
KQU1 190830Z 34017KT 01/M04 A301 RMK A01 T00091039  RH  071%=      5-min Rain = 0
KQU1 190831Z 34016KT 01/M04 A301 RMK A01 T00091038  RH  071%=      5-min Rain = 0
KQU1 190832Z 34018G26KT 01/M04 A301 RMK A01 T00091039  RH  071%=      5-min Rain = 0
KQU1 190833Z 34020G25KT 01/M04 A3009 RMK A01 T00081039  RH  070%=      5-min Rain = 0
KQU1 190834Z 35018KT 01/M04 A301 RMK A01 T00081039  RH  071%=      5-min Rain = 0
KQU1 190835Z 35020G26KT 01/M04 A3009 RMK A01 T00081039  RH  071%=      5-min Rain = 0
KQU1 190836Z 34017KT 01/M04 A3009 RMK A01 T00081039  RH  070%=      5-min Rain = 0
KQU1 190837Z 35020G25KT 01/M04 A301 RMK A01 T00081040  RH  070%=      5-min Rain = 0
KQU1 190838Z 35025G31KT 01/M04 A3009 RMK A01 T00081041  RH  070%=      5-min Rain = 0
KQU1 190839Z 35019G27KT 01/M04 A3009 RMK A01 T00081039  RH  071%=      5-min Rain = 0
KQU1 190840Z 34022G29KT 01/M04 A3009 RMK A01 T00081041  RH  070%=      5-min Rain = 0
KQU1 190841Z 34021G27KT 01/M04 A301 RMK A01 T00081041  RH  070%=      5-min Rain = 0
KQU1 190842Z 34019G24KT 01/M04 A301 RMK A01 T00081040  RH  070%=      5-min Rain = 0
KQU1 190843Z 34016G22KT 01/M04 A301 RMK A01 T00071041  RH  070%=      5-min Rain = 0
KQU1 190844Z 35017G23KT 01/M04 A301 RMK A01 T00071042  RH  070%=      5-min Rain = 0
KQU1 190845Z 34026G34KT 01/M04 A301 RMK A01 T00071042  RH  070%=      5-min Rain = 0
KQU1 190846Z 35024G31KT 01/M04 A301 RMK A01 T00071042  RH  070%=      5-min Rain = 0
KQU1 190847Z 34020G30KT 01/M04 A301 RMK A01 T00071042  RH  070%=      5-min Rain = 0
KQU1 190848Z 35019G28KT 01/M04 A301 RMK A01 T00071042  RH  070%=      5-min Rain = 0
KQU1 190849Z 34028G35KT 01/M04 A301 RMK A01 T00061042  RH  070%=      5-min Rain = 0
KQU1 190850Z 34022G27KT 01/M04 A301 RMK A01 T00061042  RH  070%=      5-min Rain = 0
KQU1 190851Z 35022G28KT 01/M04 A301 RMK A01 T00061043  RH  070%=      5-min Rain = 0
KQU1 190852Z 35024G30KT 01/M04 A301 RMK A01 T00061042  RH  070%=      5-min Rain = 0
KQU1 190853Z 35023G32KT 01/M04 A301 RMK A01 T00061042  RH  070%=      5-min Rain = 0
KQU1 190854Z 35021G35KT 01/M04 A301 RMK A01 T00061041  RH  070%=      5-min Rain = 0
KQU1 190855Z 35024G34KT 01/M04 A301 RMK A01 T00071042  RH  070%=      5-min Rain = 0
KQU1 190856Z 35021G27KT 01/M04 A301 RMK A01 T00061042  RH  070%=      5-min Rain = 0
KQU1 190857Z 34022KT 01/M04 A301 RMK A01 T00061043  RH  069%=      5-min Rain = 0
KQU1 190858Z 34021G28KT 01/M04 A301 RMK A01 T00061042  RH  070%=      5-min Rain = 0
KQU1 190859Z 35019G25KT 01/M04 A301 RMK A01 T00061042  RH  070%=      5-min Rain = 0
KQU1 190900Z 36022G27KT 01/M04 A301 RMK A01 T00061042  RH  070%=      5-min Rain = 0
KQU1 190901Z 35019G25KT 01/M04 A301 RMK A01 T00061041  RH  071%=      5-min Rain = 0
KQU1 190902Z 33015G21KT 01/M04 A3011 RMK A01 T00061042  RH  070%=      5-min Rain = 0
KQU1 190903Z 35022G29KT 01/M04 A3011 RMK A01 T00051042  RH  070%=      5-min Rain = 0
KQU1 190904Z 34019G25KT 01/M04 A3011 RMK A01 T00051044  RH  070%=      5-min Rain = 0
KQU1 190905Z 36018G24KT 01/M04 A301 RMK A01 T00051043  RH  070%=      5-min Rain = 0
KQU1 190906Z 34016G23KT 01/M04 A3011 RMK A01 T00051042  RH  071%=      5-min Rain = 0
KQU1 190907Z 35015G20KT 01/M04 A3011 RMK A01 T00051042  RH  071%=      5-min Rain = 0
KQU1 190908Z 34020G25KT 01/M04 A3011 RMK A01 T00051042  RH  071%=      5-min Rain = 0
KQU1 190909Z 35018G25KT 01/M04 A3011 RMK A01 T00051043  RH  070%=      5-min Rain = 0
KQU1 190910Z 35020G25KT 00/M04 A3011 RMK A01 T00041043  RH  071%=      5-min Rain = 0
KQU1 190911Z 34019KT 00/M04 A3011 RMK A01 T00041043  RH  071%=      5-min Rain = 0
KQU1 190912Z 35018G26KT 00/M04 A3011 RMK A01 T00041043  RH  071%=      5-min Rain = 0
KQU1 190913Z 35019G28KT 00/M04 A3011 RMK A01 T00041044  RH  070%=      5-min Rain = 0
KQU1 190914Z 34014G23KT 00/M04 A3011 RMK A01 T00041044  RH  070%=      5-min Rain = 0
KQU1 190915Z 35015G20KT 00/M04 A3011 RMK A01 T00031043  RH  071%=      5-min Rain = 0
KQU1 190916Z 34013G21KT 00/M04 A3011 RMK A01 T00031044  RH  071%=      5-min Rain = 0
KQU1 190917Z 34013KT 00/M04 A3011 RMK A01 T00031043  RH  071%=      5-min Rain = 0
KQU1 190918Z 35016G24KT 00/M04 A3011 RMK A01 T00031044  RH  071%=      5-min Rain = 0
KQU1 190919Z 34016KT 00/M05 A3011 RMK A01 T00031045  RH  070%=      5-min Rain = 0
KQU1 190920Z 34012KT 00/M05 A3011 RMK A01 T00031045  RH  070%=      5-min Rain = 0
KQU1 190921Z 35014G19KT 00/M04 A3011 RMK A01 T00031044  RH  071%=      5-min Rain = 0
KQU1 190922Z 34012G18KT 00/M05 A3012 RMK A01 T00021045  RH  071%=      5-min Rain = 0
KQU1 190923Z 35014KT 00/M05 A3012 RMK A01 T00021045  RH  071%=      5-min Rain = 0
KQU1 190924Z 34014KT 00/M05 A3012 RMK A01 T00021045  RH  071%=      5-min Rain = 0
KQU1 190925Z 00018G27KT 00/M05 A3011 RMK A01 T00021046  RH  070%=      5-min Rain = 0
KQU1 190926Z 34015G26KT 00/M05 A3011 RMK A01 T00011046  RH  071%=      5-min Rain = 0
KQU1 190927Z 35018G24KT 00/M05 A3012 RMK A01 T00011047  RH  070%=      5-min Rain = 0
KQU1 190928Z 35016KT 00/M05 A3012 RMK A01 T00011048  RH  070%=      5-min Rain = 0
KQU1 190929Z 34015G22KT 00/05 A3012 RMK A01 T00000-48  RH  070%=      5-min Rain = 0
KQU1 190930Z 34013KT 00/05 A3011 RMK A01 T00-00-49  RH  070%=      5-min Rain = 0
KQU1 190931Z 34013KT 00/05 A3012 RMK A01 T00-00-49  RH  070%=      5-min Rain = 0
KQU1 190932Z 34017G23KT M00/M05 A3012 RMK A01 T10011049  RH  070%=      5-min Rain = 0
KQU1 190933Z 34020G28KT M00/M05 A3011 RMK A01 T10011050  RH  069%=      5-min Rain = 0
KQU1 190934Z 34018G23KT M00/M05 A3011 RMK A01 T10011050  RH  069%=      5-min Rain = 0
KQU1 190935Z 35018G24KT M00/M05 A3011 RMK A01 T10011050  RH  070%=      5-min Rain = 0
KQU1 190936Z 34018G26KT M00/M05 A3011 RMK A01 T10011050  RH  070%=      5-min Rain = 0
KQU1 190937Z 34020G25KT M00/M05 A3011 RMK A01 T10021051  RH  069%=      5-min Rain = 0
KQU1 190938Z 34019G29KT M00/M05 A3012 RMK A01 T10021051  RH  069%=      5-min Rain = 0
KQU1 190939Z 34019G26KT M00/M05 A3011 RMK A01 T10021051  RH  069%=      5-min Rain = 0
KQU1 190940Z 34018G27KT M00/M05 A3012 RMK A01 T10021051  RH  069%=      5-min Rain = 0
KQU1 190941Z 35015G21KT M00/M05 A3012 RMK A01 T10021050  RH  070%=      5-min Rain = 0
KQU1 190942Z 35015KT M00/M05 A3012 RMK A01 T10021050  RH  070%=      5-min Rain = 0
KQU1 190943Z 34016KT M00/M05 A3012 RMK A01 T10021051  RH  070%=      5-min Rain = 0
KQU1 190944Z 34016KT M00/M05 A3012 RMK A01 T10031052  RH  069%=      5-min Rain = 0
KQU1 190945Z 33015G20KT M00/M05 A3012 RMK A01 T10031051  RH  070%=      5-min Rain = 0
KQU1 190946Z 36017G23KT M00/M05 A3012 RMK A01 T10041052  RH  070%=      5-min Rain = 0
KQU1 190947Z 33020KT M00/M05 A3012 RMK A01 T10041052  RH  070%=      5-min Rain = 0
KQU1 190948Z 35021G27KT M00/M05 A3012 RMK A01 T10041053  RH  069%=      5-min Rain = 0
KQU1 190949Z 34017KT M00/M05 A3012 RMK A01 T10041053  RH  070%=      5-min Rain = 0
KQU1 190950Z 35018KT M00/M05 A3012 RMK A01 T10041053  RH  070%=      5-min Rain = 0
KQU1 190951Z 35015G27KT M00/M05 A3012 RMK A01 T10041053  RH  070%=      5-min Rain = 0
KQU1 190952Z 33019KT M01/M05 A3012 RMK A01 T10051054  RH  069%=      5-min Rain = 0
KQU1 190953Z 34020KT M01/M06 A3012 RMK A01 T10051055  RH  069%=      5-min Rain = 0
KQU1 190954Z 33019G28KT M01/M05 A3012 RMK A01 T10051054  RH  069%=      5-min Rain = 0
KQU1 190955Z 34018KT M01/M05 A3012 RMK A01 T10051054  RH  069%=      5-min Rain = 0
KQU1 190956Z 34014KT M01/M05 A3012 RMK A01 T10051054  RH  070%=      5-min Rain = 0
KQU1 190957Z 33023G32KT M01/M05 A3012 RMK A01 T10051054  RH  070%=      5-min Rain = 0
KQU1 190958Z 34018G26KT M01/M06 A3012 RMK A01 T10051055  RH  069%=      5-min Rain = 0
KQU1 190959Z 33022G28KT M01/M06 A3012 RMK A01 T10061055  RH  069%=      5-min Rain = 0
KQU1 191000Z 33022G28KT M01/M06 A3012 RMK A01 T10061056  RH  069%=      5-min Rain = 0
KQU1 191001Z 33022G28KT M01/M06 A3012 RMK A01 T10061055  RH  069%=      5-min Rain = 0
KQU1 191002Z 34019G29KT M01/M06 A3012 RMK A01 T10061055  RH  069%=      5-min Rain = 0
KQU1 191003Z 34022G29KT M01/M06 A3012 RMK A01 T10061055  RH  069%=      5-min Rain = 0
KQU1 191004Z 34024G32KT M01/M06 A3012 RMK A01 T10061056  RH  069%=      5-min Rain = 0
KQU1 191005Z 33026G31KT M01/M06 A3012 RMK A01 T10061056  RH  069%=      5-min Rain = 0
KQU1 191006Z 34021G27KT M01/M06 A3012 RMK A01 T10061056  RH  069%=      5-min Rain = 0
KQU1 191007Z 33026G33KT M01/M06 A3012 RMK A01 T10061056  RH  069%=      5-min Rain = 0
KQU1 191008Z 33017G26KT M01/M06 A3013 RMK A01 T10061056  RH  069%=      5-min Rain = 0
KQU1 191009Z 33016G26KT M01/M06 A3013 RMK A01 T10061055  RH  069%=      5-min Rain = 0
KQU1 191010Z 34022G27KT M01/M06 A3013 RMK A01 T10061056  RH  069%=      5-min Rain = 0
KQU1 191011Z 33023G31KT M01/M06 A3013 RMK A01 T10061056  RH  069%=      5-min Rain = 0
KQU1 191012Z 33023G30KT M01/M06 A3013 RMK A01 T10061057  RH  069%=      5-min Rain = 0
KQU1 191013Z 34021KT M01/M06 A3013 RMK A01 T10061056  RH  069%=      5-min Rain = 0
KQU1 191014Z 33021G27KT M01/M06 A3013 RMK A01 T10061056  RH  069%=      5-min Rain = 0
KQU1 191015Z 32023G31KT M01/M06 A3013 RMK A01 T10061057  RH  069%=      5-min Rain = 0
KQU1 191016Z 34017G22KT M01/M06 A3013 RMK A01 T10071056  RH  069%=      5-min Rain = 0
KQU1 191017Z 34015G25KT M01/M06 A3013 RMK A01 T10071055  RH  070%=      5-min Rain = 0
KQU1 191018Z 34019G25KT M01/M06 A3014 RMK A01 T10071056  RH  070%=      5-min Rain = 0
KQU1 191019Z 34017G23KT M01/M06 A3014 RMK A01 T10071056  RH  069%=      5-min Rain = 0
KQU1 191020Z 34017G22KT M01/M06 A3014 RMK A01 T10071055  RH  070%=      5-min Rain = 0
KQU1 191021Z 35026G32KT M01/M06 A3013 RMK A01 T10071055  RH  070%=      5-min Rain = 0
KQU1 191022Z 34021G27KT M01/M06 A3014 RMK A01 T10071055  RH  070%=      5-min Rain = 0
KQU1 191023Z 34022G29KT M01/M06 A3014 RMK A01 T10071056  RH  069%=      5-min Rain = 0
KQU1 191024Z 34019KT M01/M06 A3014 RMK A01 T10071055  RH  070%=      5-min Rain = 0
KQU1 191025Z 34016G22KT M01/M05 A3014 RMK A01 T10071054  RH  070%=      5-min Rain = 0
KQU1 191026Z 35018G26KT M01/M05 A3014 RMK A01 T10071054  RH  070%=      5-min Rain = 0
KQU1 191027Z 34018G25KT M01/M05 A3014 RMK A01 T10071054  RH  070%=      5-min Rain = 0
KQU1 191028Z 33018G25KT M01/M05 A3014 RMK A01 T10071054  RH  070%=      5-min Rain = 0
KQU1 191029Z 34017G22KT M01/M05 A3014 RMK A01 T10071054  RH  070%=      5-min Rain = 0
KQU1 191030Z 34016KT M01/M05 A3014 RMK A01 T10071054  RH  070%=      5-min Rain = 0
KQU1 191031Z 35020G27KT M01/M05 A3014 RMK A01 T10071054  RH  070%=      5-min Rain = 0
KQU1 191032Z 35021G27KT M01/M05 A3014 RMK A01 T10061053  RH  071%=      5-min Rain = 0
KQU1 191033Z 35020G26KT M01/M05 A3014 RMK A01 T10061054  RH  070%=      5-min Rain = 0
KQU1 191034Z 34019G26KT M01/M05 A3014 RMK A01 T10061053  RH  071%=      5-min Rain = 0
KQU1 191035Z 34022KT M01/M05 A3014 RMK A01 T10061054  RH  070%=      5-min Rain = 0
KQU1 191036Z 35023KT M01/M05 A3014 RMK A01 T10061054  RH  070%=      5-min Rain = 0
KQU1 191037Z 35028G35KT M01/M05 A3014 RMK A01 T10061053  RH  070%=      5-min Rain = 0
KQU1 191038Z 34017G26KT M01/M05 A3014 RMK A01 T10061054  RH  070%=      5-min Rain = 0
KQU1 191039Z 35028KT M01/M05 A3014 RMK A01 T10061054  RH  070%=      5-min Rain = 0
KQU1 191040Z 34023G28KT M01/M05 A3015 RMK A01 T10061053  RH  071%=      5-min Rain = 0
KQU1 191041Z 35022G27KT M01/M05 A3014 RMK A01 T10061054  RH  070%=      5-min Rain = 0
KQU1 191042Z 35020G26KT M01/M05 A3014 RMK A01 T10061052  RH  071%=      5-min Rain = 0
KQU1 191043Z 35017G28KT M01/M05 A3015 RMK A01 T10061052  RH  071%=      5-min Rain = 0
KQU1 191044Z 35024G31KT M01/M05 A3015 RMK A01 T10061053  RH  071%=      5-min Rain = 0
KQU1 191045Z 34019G25KT M01/M05 A3015 RMK A01 T10061053  RH  071%=      5-min Rain = 0
KQU1 191046Z 35018G23KT M01/M05 A3015 RMK A01 T10061052  RH  071%=      5-min Rain = 0
KQU1 191047Z 35021G27KT M01/M05 A3015 RMK A01 T10061052  RH  071%=      5-min Rain = 0
KQU1 191048Z 35021G27KT M01/M05 A3015 RMK A01 T10061053  RH  071%=      5-min Rain = 0
KQU1 191049Z 35021G29KT M01/M05 A3015 RMK A01 T10061053  RH  071%=      5-min Rain = 0
KQU1 191050Z 34018G26KT M01/M05 A3015 RMK A01 T10061052  RH  071%=      5-min Rain = 0
KQU1 191051Z 34018G24KT M01/M05 A3015 RMK A01 T10061053  RH  071%=      5-min Rain = 0
KQU1 191052Z 35019G27KT M01/M05 A3015 RMK A01 T10061052  RH  071%=      5-min Rain = 0
KQU1 191053Z 34023G28KT M01/M05 A3015 RMK A01 T10061053  RH  071%=      5-min Rain = 0
KQU1 191054Z 35019G25KT M01/M05 A3015 RMK A01 T10061052  RH  071%=      5-min Rain = 0
KQU1 191055Z 35019G27KT M01/M05 A3016 RMK A01 T10061052  RH  071%=      5-min Rain = 0
KQU1 191056Z 34024G29KT M01/M05 A3016 RMK A01 T10061052  RH  071%=      5-min Rain = 0
KQU1 191057Z 34019G24KT M01/M05 A3016 RMK A01 T10051052  RH  071%=      5-min Rain = 0
KQU1 191058Z 34018G24KT M01/M05 A3016 RMK A01 T10051051  RH  071%=      5-min Rain = 0
KQU1 191059Z 35021G27KT M01/M05 A3016 RMK A01 T10051051  RH  071%=      5-min Rain = 0
KQU1 191100Z 34021G26KT M01/M05 A3016 RMK A01 T10051051  RH  071%=      5-min Rain = 0
KQU1 191101Z 34016G22KT M01/M05 A3016 RMK A01 T10051050  RH  072%=      5-min Rain = 0
KQU1 191102Z 34017G26KT M01/M05 A3016 RMK A01 T10051050  RH  072%=      5-min Rain = 0
KQU1 191103Z 34016G24KT M01/M05 A3016 RMK A01 T10051049  RH  072%=      5-min Rain = 0
KQU1 191104Z 34020G27KT M01/M05 A3016 RMK A01 T10051050  RH  072%=      5-min Rain = 0
KQU1 191105Z 35017G24KT M01/M05 A3016 RMK A01 T10061050  RH  072%=      5-min Rain = 0
KQU1 191106Z 35018G26KT M01/M05 A3016 RMK A01 T10061049  RH  072%=      5-min Rain = 0
KQU1 191107Z 34017G26KT M01/M05 A3016 RMK A01 T10051050  RH  072%=      5-min Rain = 0
KQU1 191108Z 35016G23KT M01/M05 A3017 RMK A01 T10061050  RH  072%=      5-min Rain = 0
KQU1 191109Z 34013KT M01/M05 A3017 RMK A01 T10061049  RH  073%=      5-min Rain = 0
KQU1 191110Z 34014G19KT M01/M05 A3017 RMK A01 T10061049  RH  073%=      5-min Rain = 0
KQU1 191111Z 34013G20KT M01/M05 A3017 RMK A01 T10061048  RH  073%=      5-min Rain = 0
KQU1 191112Z 34014KT M01/M05 A3017 RMK A01 T10061049  RH  073%=      5-min Rain = 0
KQU1 191113Z 33013G19KT M01/M05 A3017 RMK A01 T10061049  RH  073%=      5-min Rain = 0
KQU1 191114Z 35012G17KT M01/M05 A3017 RMK A01 T10061049  RH  073%=      5-min Rain = 0
KQU1 191115Z 35011G18KT M01/M05 A3017 RMK A01 T10061049  RH  073%=      5-min Rain = 0
KQU1 191116Z 34009G16KT M01/M05 A3017 RMK A01 T10061048  RH  073%=      5-min Rain = 0
KQU1 191117Z 34012KT M01/M05 A3017 RMK A01 T10061048  RH  073%=      5-min Rain = 0
KQU1 191118Z 34008KT M01/M05 A3017 RMK A01 T10061049  RH  073%=      5-min Rain = 0
KQU1 191119Z 34011G16KT M01/M05 A3017 RMK A01 T10071048  RH  073%=      5-min Rain = 0
KQU1 191120Z 32014KT M01/M05 A3017 RMK A01 T10061048  RH  073%=      5-min Rain = 0
KQU1 191121Z 33012G18KT M01/M05 A3017 RMK A01 T10061048  RH  073%=      5-min Rain = 0
KQU1 191122Z 33011KT M01/M05 A3017 RMK A01 T10061048  RH  073%=      5-min Rain = 0
KQU1 191123Z 32009KT M01/M05 A3017 RMK A01 T10061048  RH  073%=      5-min Rain = 0
KQU1 191124Z 33009KT M01/M05 A3017 RMK A01 T10071048  RH  073%=      5-min Rain = 0
KQU1 191125Z 32014KT M01/M05 A3017 RMK A01 T10071048  RH  073%=      5-min Rain = 0
KQU1 191126Z 32012KT M01/M05 A3017 RMK A01 T10071048  RH  074%=      5-min Rain = 0
KQU1 191127Z 34012KT M01/M05 A3017 RMK A01 T10071047  RH  074%=      5-min Rain = 0
KQU1 191128Z 33009KT M01/M05 A3017 RMK A01 T10071047  RH  074%=      5-min Rain = 0
KQU1 191129Z 33009KT M01/M05 A3017 RMK A01 T10071048  RH  074%=      5-min Rain = 0
KQU1 191130Z 34011KT M01/M05 A3017 RMK A01 T10071048  RH  074%=      5-min Rain = 0
KQU1 191131Z 34010KT M01/M05 A3017 RMK A01 T10071048  RH  074%=      5-min Rain = 0
KQU1 191132Z 34010KT M01/M05 A3017 RMK A01 T10071047  RH  074%=      5-min Rain = 0
KQU1 191133Z 32009KT M01/M05 A3017 RMK A01 T10071047  RH  074%=      5-min Rain = 0
KQU1 191134Z 32011KT M01/M05 A3017 RMK A01 T10071048  RH  074%=      5-min Rain = 0
KQU1 191135Z 33015KT M01/M05 A3017 RMK A01 T10071048  RH  074%=      5-min Rain = 0
KQU1 191136Z 34015G21KT M01/M05 A3017 RMK A01 T10071048  RH  074%=      5-min Rain = 0
KQU1 191137Z 33013KT M01/M05 A3017 RMK A01 T10061048  RH  073%=      5-min Rain = 0
KQU1 191138Z 31012KT M01/M05 A3017 RMK A01 T10061048  RH  073%=      5-min Rain = 0
KQU1 191139Z 33013G20KT M01/M05 A3017 RMK A01 T10071048  RH  074%=      5-min Rain = 0
KQU1 191140Z 33016KT M01/M05 A3017 RMK A01 T10071048  RH  074%=      5-min Rain = 0
KQU1 191141Z 32015G22KT M01/M05 A3017 RMK A01 T10061048  RH  073%=      5-min Rain = 0
KQU1 191142Z 32016G21KT M01/M05 A3017 RMK A01 T10061048  RH  073%=      5-min Rain = 0
KQU1 191143Z 32021KT M01/M05 A3017 RMK A01 T10061048  RH  073%=      5-min Rain = 0
KQU1 191144Z 33017KT M01/M05 A3017 RMK A01 T10051048  RH  073%=      5-min Rain = 0
KQU1 191145Z 33012KT M01/M05 A3017 RMK A01 T10051048  RH  073%=      5-min Rain = 0
KQU1 191146Z 33014KT M01/M05 A3018 RMK A01 T10051048  RH  073%=      5-min Rain = 0
KQU1 191147Z 33014KT M01/M05 A3018 RMK A01 T10051047  RH  073%=      5-min Rain = 0
KQU1 191148Z 33013G18KT M01/M05 A3018 RMK A01 T10051048  RH  073%=      5-min Rain = 0
KQU1 191149Z 33012KT M01/M05 A3018 RMK A01 T10051048  RH  073%=      5-min Rain = 0
KQU1 191150Z 34012KT M01/M05 A3018 RMK A01 T10051048  RH  073%=      5-min Rain = 0
KQU1 191151Z 33010KT M01/M05 A3018 RMK A01 T10051047  RH  073%=      5-min Rain = 0
KQU1 191152Z 33008KT M01/M05 A3018 RMK A01 T10051047  RH  073%=      5-min Rain = 0
KQU1 191153Z 32012G18KT M01/M05 A3018 RMK A01 T10051047  RH  073%=      5-min Rain = 0
KQU1 191154Z 33014KT M01/M05 A3018 RMK A01 T10051047  RH  073%=      5-min Rain = 0
KQU1 191155Z 33018KT M01/M05 A3018 RMK A01 T10051047  RH  073%=      5-min Rain = 0
KQU1 191156Z 34017KT M01/M05 A3018 RMK A01 T10051047  RH  073%=      5-min Rain = 0
KQU1 191157Z 34013G19KT M00/M05 A3018 RMK A01 T10041046  RH  073%=      5-min Rain = 0
KQU1 191158Z 34016G22KT M00/M05 A3018 RMK A01 T10041047  RH  073%=      5-min Rain = 0
KQU1 191159Z 33014KT M00/M05 A3018 RMK A01 T10041046  RH  073%=      5-min Rain = 0
KQU1 191200Z 32016G21KT M00/M05 A3018 RMK A01 T10041047  RH  073%=      5-min Rain = 0
KQU1 191201Z 34014G22KT M00/M05 A3018 RMK A01 T10041047  RH  073%=      5-min Rain = 0
KQU1 191202Z 34012KT M00/M05 A3018 RMK A01 T10041047  RH  073%=      5-min Rain = 0
KQU1 191203Z 34010KT M00/M05 A3019 RMK A01 T10041047  RH  073%=      5-min Rain = 0
KQU1 191204Z 34010KT M00/M05 A3019 RMK A01 T10041046  RH  073%=      5-min Rain = 0
KQU1 191205Z 34012KT M00/M05 A3019 RMK A01 T10041046  RH  073%=      5-min Rain = 0
KQU1 191206Z 34014KT M00/M05 A3019 RMK A01 T10041047  RH  073%=      5-min Rain = 0
KQU1 191207Z 33012KT M00/M05 A3019 RMK A01 T10041047  RH  073%=      5-min Rain = 0
KQU1 191208Z 33017G24KT M00/M05 A3019 RMK A01 T10041047  RH  073%=      5-min Rain = 0
KQU1 191209Z 34016KT M00/M05 A3019 RMK A01 T10041047  RH  073%=      5-min Rain = 0
KQU1 191210Z 33010G15KT M00/M05 A3019 RMK A01 T10041047  RH  073%=      5-min Rain = 0
KQU1 191211Z 33017G23KT M00/M05 A3019 RMK A01 T10041047  RH  073%=      5-min Rain = 0
KQU1 191212Z 33022G29KT M00/M05 A3019 RMK A01 T10041047  RH  073%=      5-min Rain = 0
KQU1 191213Z 33013KT M00/M05 A3019 RMK A01 T10041047  RH  072%=      5-min Rain = 0
KQU1 191214Z 34012G19KT M00/M05 A3019 RMK A01 T10041047  RH  073%=      5-min Rain = 0
KQU1 191215Z 33019G25KT M00/M05 A3019 RMK A01 T10041047  RH  073%=      5-min Rain = 0
KQU1 191216Z 34016G21KT M00/M05 A3019 RMK A01 T10041047  RH  073%=      5-min Rain = 0
KQU1 191217Z 33017G24KT M00/M05 A3019 RMK A01 T10041047  RH  073%=      5-min Rain = 0
KQU1 191218Z 34015KT M00/M05 A3019 RMK A01 T10041047  RH  073%=      5-min Rain = 0
KQU1 191219Z 34016G22KT M00/M05 A3019 RMK A01 T10041047  RH  073%=      5-min Rain = 0
KQU1 191220Z 34014G19KT M00/M05 A3019 RMK A01 T10041047  RH  073%=      5-min Rain = 0
KQU1 191221Z 34013KT M01/M05 A3019 RMK A01 T10051047  RH  073%=      5-min Rain = 0
KQU1 191222Z 33014KT M01/M05 A3019 RMK A01 T10051048  RH  073%=      5-min Rain = 0
KQU1 191223Z 34010KT M01/M05 A3019 RMK A01 T10051047  RH  073%=      5-min Rain = 0
KQU1 191224Z 34010KT M01/M05 A3019 RMK A01 T10051047  RH  073%=      5-min Rain = 0
KQU1 191225Z 34011KT M01/M05 A3019 RMK A01 T10061047  RH  073%=      5-min Rain = 0
KQU1 191226Z 33016G21KT M01/M05 A3019 RMK A01 T10061047  RH  074%=      5-min Rain = 0
KQU1 191227Z 33016G24KT M01/M05 A3019 RMK A01 T10061048  RH  073%=      5-min Rain = 0
KQU1 191228Z 34011KT M01/M05 A3019 RMK A01 T10061047  RH  074%=      5-min Rain = 0
KQU1 191229Z 34012KT M01/M05 A302 RMK A01 T10061047  RH  074%=      5-min Rain = 0
KQU1 191230Z 34012KT M01/M05 A302 RMK A01 T10061047  RH  074%=      5-min Rain = 0
KQU1 191231Z 35009G14KT M01/M05 A302 RMK A01 T10061047  RH  074%=      5-min Rain = 0
KQU1 191232Z 35013G18KT M01/M05 A302 RMK A01 T10061047  RH  074%=      5-min Rain = 0
KQU1 191233Z 33013KT M01/M05 A302 RMK A01 T10071047  RH  074%=      5-min Rain = 0
KQU1 191234Z 33010KT M01/M05 A302 RMK A01 T10071047  RH  074%=      5-min Rain = 0
KQU1 191235Z 33019G25KT M01/M05 A302 RMK A01 T10071048  RH  074%=      5-min Rain = 0
KQU1 191236Z 33015G20KT M01/M05 A302 RMK A01 T10071048  RH  074%=      5-min Rain = 0
KQU1 191237Z 33014G19KT M01/M05 A302 RMK A01 T10071048  RH  074%=      5-min Rain = 0
KQU1 191238Z 33009KT M01/M05 A302 RMK A01 T10071047  RH  074%=      5-min Rain = 0
KQU1 191239Z 33011KT M01/M05 A302 RMK A01 T10071047  RH  075%=      5-min Rain = 0
KQU1 191240Z 33012KT M01/M05 A302 RMK A01 T10081047  RH  074%=      5-min Rain = 0
KQU1 191241Z 33012G18KT M01/M05 A302 RMK A01 T10081047  RH  075%=      5-min Rain = 0
KQU1 191242Z 34012KT M01/M05 A302 RMK A01 T10081047  RH  075%=      5-min Rain = 0
KQU1 191243Z 33010G16KT M01/M05 A302 RMK A01 T10081047  RH  075%=      5-min Rain = 0
KQU1 191244Z 36014G23KT M01/M05 A302 RMK A01 T10081047  RH  075%=      5-min Rain = 0
KQU1 191245Z 34018G23KT M01/M05 A302 RMK A01 T10081047  RH  075%=      5-min Rain = 0
KQU1 191246Z 33013KT M01/M05 A3021 RMK A01 T10081047  RH  075%=      5-min Rain = 0
KQU1 191247Z 35015G20KT M01/M05 A302 RMK A01 T10081047  RH  075%=      5-min Rain = 0
KQU1 191248Z 00011G16KT M01/M05 A302 RMK A01 T10081046  RH  075%=      5-min Rain = 0
KQU1 191249Z 33013G22KT M01/M05 A3021 RMK A01 T10081047  RH  075%=      5-min Rain = 0
KQU1 191250Z 35013KT M01/M05 A3021 RMK A01 T10091047  RH  075%=      5-min Rain = 0
KQU1 191251Z 34012KT M01/M05 A3021 RMK A01 T10091047  RH  075%=      5-min Rain = 0
KQU1 191252Z 35013KT M01/M05 A3021 RMK A01 T10091046  RH  076%=      5-min Rain = 0
KQU1 191253Z 34015KT M01/M05 A3021 RMK A01 T10091047  RH  075%=      5-min Rain = 0
KQU1 191254Z 34012KT M01/M05 A3021 RMK A01 T10091046  RH  076%=      5-min Rain = 0
KQU1 191255Z 32016KT M01/M05 A3021 RMK A01 T10091047  RH  076%=      5-min Rain = 0
KQU1 191256Z 35011G16KT M01/M05 A3021 RMK A01 T10091047  RH  076%=      5-min Rain = 0
KQU1 191257Z 34012KT M01/M05 A3021 RMK A01 T10091046  RH  076%=      5-min Rain = 0
KQU1 191258Z 35013KT M01/M05 A3021 RMK A01 T10091046  RH  076%=      5-min Rain = 0
KQU1 191259Z 33013G18KT M01/M05 A3021 RMK A01 T10091047  RH  076%=      5-min Rain = 0
KQU1 191300Z 33012G19KT M01/M05 A3021 RMK A01 T10101047  RH  076%=      5-min Rain = 0
KQU1 191301Z 33012KT M01/M05 A3021 RMK A01 T10101047  RH  076%=      5-min Rain = 0
KQU1 191302Z 35011KT M01/M05 A3021 RMK A01 T10101047  RH  076%=      5-min Rain = 0
KQU1 191303Z 35013KT M01/M05 A3021 RMK A01 T10101046  RH  077%=      5-min Rain = 0
KQU1 191304Z 34011KT M01/M05 A3021 RMK A01 T10101046  RH  077%=      5-min Rain = 0
KQU1 191305Z 34018G24KT M01/M05 A3021 RMK A01 T10101046  RH  077%=      5-min Rain = 0
KQU1 191306Z 34016G23KT M01/M05 A3021 RMK A01 T10101047  RH  076%=      5-min Rain = 0
KQU1 191307Z 34014KT M01/M05 A3021 RMK A01 T10101046  RH  076%=      5-min Rain = 0
KQU1 191308Z 35017KT M01/M05 A3021 RMK A01 T10101046  RH  076%=      5-min Rain = 0
KQU1 191309Z 35014G19KT M01/M05 A3021 RMK A01 T10101045  RH  077%=      5-min Rain = 0
KQU1 191310Z 35018G24KT M01/M05 A3021 RMK A01 T10101046  RH  077%=      5-min Rain = 0
KQU1 191311Z 34015KT M01/M05 A3021 RMK A01 T10101046  RH  077%=      5-min Rain = 0
KQU1 191312Z 34018G25KT M01/M05 A3021 RMK A01 T10101046  RH  077%=      5-min Rain = 0
KQU1 191313Z 35019G24KT M01/M05 A3021 RMK A01 T10101046  RH  077%=      5-min Rain = 0
KQU1 191314Z 35019G25KT M01/M05 A3021 RMK A01 T10101045  RH  077%=      5-min Rain = 0
KQU1 191315Z 35017G22KT M01/M05 A3021 RMK A01 T10101045  RH  077%=      5-min Rain = 0
KQU1 191316Z 34015KT M01/M05 A3021 RMK A01 T10101045  RH  077%=      5-min Rain = 0
KQU1 191317Z 35016G22KT M01/M05 A3021 RMK A01 T10101045  RH  077%=      5-min Rain = 0
KQU1 191318Z 35015G22KT M01/M05 A3021 RMK A01 T10101045  RH  077%=      5-min Rain = 0
KQU1 191319Z 34020G27KT M01/M05 A3021 RMK A01 T10101045  RH  077%=      5-min Rain = 0
KQU1 191320Z 34016KT M01/M05 A3022 RMK A01 T10101045  RH  077%=      5-min Rain = 0
KQU1 191321Z 35020G26KT M01/M05 A3022 RMK A01 T10101045  RH  077%=      5-min Rain = 0
KQU1 191322Z 35016KT M01/M05 A3022 RMK A01 T10101045  RH  077%=      5-min Rain = 0
KQU1 191323Z 35021KT M01/M05 A3022 RMK A01 T10101045  RH  077%=      5-min Rain = 0
KQU1 191324Z 35015G21KT M01/M05 A3022 RMK A01 T10101046  RH  077%=      5-min Rain = 0
KQU1 191325Z 35012G17KT M01/M05 A3022 RMK A01 T10101045  RH  077%=      5-min Rain = 0
KQU1 191326Z 34015KT M01/M05 A3022 RMK A01 T10101046  RH  077%=      5-min Rain = 0
KQU1 191327Z 35020G26KT M01/M05 A3022 RMK A01 T10111046  RH  077%=      5-min Rain = 0
KQU1 191328Z 35012KT M01/M05 A3022 RMK A01 T10111046  RH  077%=      5-min Rain = 0
KQU1 191329Z 35011KT M01/M05 A3023 RMK A01 T10111045  RH  077%=      5-min Rain = 0
KQU1 191330Z 35016KT M01/M05 A3023 RMK A01 T10111046  RH  077%=      5-min Rain = 0
KQU1 191331Z 35014G20KT M01/M05 A3022 RMK A01 T10111045  RH  077%=      5-min Rain = 0
KQU1 191332Z 35012G19KT M01/M05 A3023 RMK A01 T10111045  RH  078%=      5-min Rain = 0
KQU1 191333Z 35012G17KT M01/M05 A3023 RMK A01 T10111045  RH  078%=      5-min Rain = 0
KQU1 191334Z 35015G21KT M01/M05 A3023 RMK A01 T10111045  RH  078%=      5-min Rain = 0
KQU1 191335Z 35013KT M01/M05 A3023 RMK A01 T10111045  RH  077%=      5-min Rain = 0
KQU1 191336Z 35015KT M01/M05 A3023 RMK A01 T10111045  RH  077%=      5-min Rain = 0
KQU1 191337Z 35012G18KT M01/M05 A3023 RMK A01 T10101045  RH  077%=      5-min Rain = 0
KQU1 191338Z 34017G23KT M01/M05 A3023 RMK A01 T10101045  RH  077%=      5-min Rain = 0
KQU1 191339Z 34018KT M01/M05 A3023 RMK A01 T10101045  RH  077%=      5-min Rain = 0
KQU1 191340Z 33016KT M01/M05 A3023 RMK A01 T10101046  RH  077%=      5-min Rain = 0
KQU1 191341Z 34016KT M01/M05 A3023 RMK A01 T10101046  RH  077%=      5-min Rain = 0
KQU1 191342Z 34011G16KT M01/M05 A3023 RMK A01 T10101045  RH  077%=      5-min Rain = 0
KQU1 191343Z 35013KT M01/M05 A3023 RMK A01 T10101045  RH  077%=      5-min Rain = 0
KQU1 191344Z 33015KT M01/M05 A3023 RMK A01 T10101045  RH  077%=      5-min Rain = 0
KQU1 191345Z 34012KT M01/M05 A3024 RMK A01 T10101045  RH  077%=      5-min Rain = 0
KQU1 191346Z 33013KT M01/M05 A3024 RMK A01 T10101045  RH  077%=      5-min Rain = 0
KQU1 191347Z 34012G17KT M01/M05 A3024 RMK A01 T10101045  RH  077%=      5-min Rain = 0
KQU1 191348Z 33012KT M01/M05 A3024 RMK A01 T10101045  RH  077%=      5-min Rain = 0
KQU1 191349Z 33011KT M01/M05 A3024 RMK A01 T10101046  RH  077%=      5-min Rain = 0
KQU1 191350Z 34013G19KT M01/M05 A3024 RMK A01 T10101046  RH  077%=      5-min Rain = 0
KQU1 191351Z 34012G18KT M01/M05 A3024 RMK A01 T10101045  RH  077%=      5-min Rain = 0
KQU1 191352Z 34016KT M01/M05 A3024 RMK A01 T10091045  RH  077%=      5-min Rain = 0
KQU1 191353Z 34014KT M01/M05 A3024 RMK A01 T10091045  RH  076%=      5-min Rain = 0
KQU1 191354Z 34015G21KT M01/M05 A3024 RMK A01 T10091046  RH  076%=      5-min Rain = 0
KQU1 191355Z 33012KT M01/M05 A3024 RMK A01 T10091045  RH  076%=      5-min Rain = 0
KQU1 191356Z 32013KT M01/M05 A3024 RMK A01 T10091046  RH  076%=      5-min Rain = 0
KQU1 191357Z 34012KT M01/M05 A3024 RMK A01 T10091046  RH  076%=      5-min Rain = 0
KQU1 191358Z 34010G15KT M01/M05 A3024 RMK A01 T10091045  RH  076%=      5-min Rain = 0
KQU1 191359Z 34009KT M01/M05 A3024 RMK A01 T10091046  RH  076%=      5-min Rain = 0
KQU1 191400Z 34013G18KT M01/M05 A3024 RMK A01 T10091046  RH  076%=      5-min Rain = 0
KQU1 191401Z 34013KT M01/M05 A3025 RMK A01 T10091046  RH  076%=      5-min Rain = 0
KQU1 191402Z 33010G16KT M01/M05 A3025 RMK A01 T10091046  RH  076%=      5-min Rain = 0
KQU1 191403Z 34015KT M01/M05 A3025 RMK A01 T10091046  RH  076%=      5-min Rain = 0
KQU1 191404Z 34010G17KT M01/M05 A3025 RMK A01 T10091045  RH  076%=      5-min Rain = 0
KQU1 191405Z 34013G18KT M01/M05 A3025 RMK A01 T10081045  RH  076%=      5-min Rain = 0
KQU1 191406Z 34013G18KT M01/M05 A3025 RMK A01 T10081046  RH  076%=      5-min Rain = 0
KQU1 191407Z 33012KT M01/M05 A3025 RMK A01 T10081046  RH  075%=      5-min Rain = 0
KQU1 191408Z 33009G15KT M01/M05 A3025 RMK A01 T10081046  RH  075%=      5-min Rain = 0
KQU1 191409Z 34010KT M01/M05 A3025 RMK A01 T10081046  RH  076%=      5-min Rain = 0
KQU1 191410Z 35012KT M01/M05 A3025 RMK A01 T10081045  RH  076%=      5-min Rain = 0
KQU1 191411Z 33014G25KT M01/M05 A3025 RMK A01 T10081045  RH  076%=      5-min Rain = 0
KQU1 191412Z 32018G24KT M01/M05 A3025 RMK A01 T10081046  RH  075%=      5-min Rain = 0
KQU1 191413Z 34012KT M01/M05 A3025 RMK A01 T10081046  RH  075%=      5-min Rain = 0
KQU1 191414Z 34015KT M01/M05 A3025 RMK A01 T10081045  RH  076%=      5-min Rain = 0
KQU1 191415Z 35015KT M01/M04 A3025 RMK A01 T10071044  RH  076%=      5-min Rain = 0
KQU1 191416Z 34016G22KT M01/M04 A3025 RMK A01 T10071044  RH  076%=      5-min Rain = 0
KQU1 191417Z 32014G21KT M01/M05 A3025 RMK A01 T10071046  RH  075%=      5-min Rain = 0
KQU1 191418Z 34014KT M01/M05 A3025 RMK A01 T10071046  RH  075%=      5-min Rain = 0
KQU1 191419Z 34010G15KT M01/M05 A3025 RMK A01 T10071045  RH  075%=      5-min Rain = 0
KQU1 191420Z 34011KT M01/M04 A3025 RMK A01 T10061044  RH  076%=      5-min Rain = 0
KQU1 191421Z 34014KT M01/M04 A3026 RMK A01 T10061044  RH  075%=      5-min Rain = 0
KQU1 191422Z 34014KT M01/M04 A3026 RMK A01 T10061044  RH  075%=      5-min Rain = 0
KQU1 191423Z 34010KT M01/M05 A3026 RMK A01 T10051045  RH  075%=      5-min Rain = 0
KQU1 191424Z 34014G20KT M01/M05 A3026 RMK A01 T10051045  RH  075%=      5-min Rain = 0
KQU1 191425Z 33016KT M01/M05 A3026 RMK A01 T10051045  RH  074%=      5-min Rain = 0
KQU1 191426Z 32015KT M01/M05 A3026 RMK A01 T10051045  RH  074%=      5-min Rain = 0
KQU1 191427Z 33011KT M01/M05 A3026 RMK A01 T10051045  RH  074%=      5-min Rain = 0
KQU1 191428Z 33011KT M00/M05 A3026 RMK A01 T10041045  RH  074%=      5-min Rain = 0
KQU1 191429Z 34009KT M00/M05 A3026 RMK A01 T10041045  RH  074%=      5-min Rain = 0
KQU1 191430Z 32011KT M00/M05 A3027 RMK A01 T10041045  RH  074%=      5-min Rain = 0
KQU1 191431Z 34012KT M00/M05 A3027 RMK A01 T10041045  RH  074%=      5-min Rain = 0
KQU1 191432Z 33014G20KT M00/M05 A3027 RMK A01 T10041045  RH  074%=      5-min Rain = 0
KQU1 191433Z 34011G16KT M00/M05 A3027 RMK A01 T10041045  RH  073%=      5-min Rain = 0
KQU1 191434Z 32012G17KT M00/M05 A3027 RMK A01 T10041045  RH  073%=      5-min Rain = 0
KQU1 191435Z 33016G21KT M00/M05 A3027 RMK A01 T10031046  RH  073%=      5-min Rain = 0
KQU1 191436Z 33013G19KT M00/M05 A3027 RMK A01 T10031045  RH  073%=      5-min Rain = 0
KQU1 191437Z 34017G22KT M00/M05 A3027 RMK A01 T10031046  RH  073%=      5-min Rain = 0
KQU1 191438Z 35018KT M00/M05 A3027 RMK A01 T10031046  RH  073%=      5-min Rain = 0
KQU1 191439Z 35017KT M00/M05 A3027 RMK A01 T10031046  RH  073%=      5-min Rain = 0
KQU1 191440Z 35017KT M00/M05 A3027 RMK A01 T10031046  RH  073%=      5-min Rain = 0
KQU1 191441Z 35018G27KT M00/M05 A3027 RMK A01 T10041046  RH  073%=      5-min Rain = 0
KQU1 191442Z 35017KT M00/M05 A3028 RMK A01 T10041045  RH  074%=      5-min Rain = 0
KQU1 191443Z 34016G22KT M00/M05 A3028 RMK A01 T10041046  RH  073%=      5-min Rain = 0
KQU1 191444Z 34014G21KT M00/M05 A3028 RMK A01 T10041046  RH  073%=      5-min Rain = 0
KQU1 191445Z 35015G21KT M00/M05 A3028 RMK A01 T10041045  RH  074%=      5-min Rain = 0
KQU1 191446Z 35016G24KT M00/M05 A3028 RMK A01 T10041045  RH  074%=      5-min Rain = 0
KQU1 191447Z 33017KT M00/M05 A3028 RMK A01 T10041046  RH  073%=      5-min Rain = 0
KQU1 191448Z 34016G21KT M00/M05 A3028 RMK A01 T10041046  RH  073%=      5-min Rain = 0
KQU1 191449Z 34016KT M00/M05 A3028 RMK A01 T10041047  RH  073%=      5-min Rain = 0
KQU1 191450Z 32013G18KT M00/M05 A3028 RMK A01 T10041046  RH  074%=      5-min Rain = 0
KQU1 191451Z 33014G19KT M00/M05 A3028 RMK A01 T10041046  RH  074%=      5-min Rain = 0
KQU1 191452Z 34012G18KT M00/M05 A3029 RMK A01 T10041045  RH  074%=      5-min Rain = 0
KQU1 191453Z 35013G19KT M00/M05 A3029 RMK A01 T10041045  RH  074%=      5-min Rain = 0
KQU1 191454Z 35014KT M00/M04 A3029 RMK A01 T10031044  RH  074%=      5-min Rain = 0
KQU1 191455Z 34013KT M00/M04 A3029 RMK A01 T10031044  RH  074%=      5-min Rain = 0
KQU1 191456Z 34014G19KT M00/M04 A3029 RMK A01 T10021044  RH  073%=      5-min Rain = 0
KQU1 191457Z 34012G18KT M00/M04 A3029 RMK A01 T10021044  RH  073%=      5-min Rain = 0
KQU1 191458Z 35011KT M00/M04 A3029 RMK A01 T10021043  RH  074%=      5-min Rain = 0
KQU1 191459Z 35015KT M00/M04 A3029 RMK A01 T10011043  RH  073%=      5-min Rain = 0
KQU1 191500Z 34015G20KT M00/M04 A3029 RMK A01 T10011043  RH  073%=      5-min Rain = 0
KQU1 191501Z 35013KT M00/M04 A3029 RMK A01 T10011044  RH  073%=      5-min Rain = 0
KQU1 191502Z 35013G18KT M00/M04 A3029 RMK A01 T10011043  RH  073%=      5-min Rain = 0
KQU1 191503Z 33012G18KT M00/M04 A3029 RMK A01 T10011043  RH  073%=      5-min Rain = 0
KQU1 191504Z 33011KT M00/M04 A3029 RMK A01 T10011043  RH  073%=      5-min Rain = 0
KQU1 191505Z 36011G18KT 00/04 A3029 RMK A01 T00-00-42  RH  073%=      5-min Rain = 0
KQU1 191506Z 33014G21KT 00/04 A3029 RMK A01 T00000-42  RH  073%=      5-min Rain = 0
KQU1 191507Z 34015KT 00/M04 A3029 RMK A01 T00011043  RH  072%=      5-min Rain = 0
KQU1 191508Z 34015KT 00/M04 A3029 RMK A01 T00011043  RH  072%=      5-min Rain = 0
KQU1 191509Z 35011KT 00/M04 A3029 RMK A01 T00011041  RH  073%=      5-min Rain = 0
KQU1 191510Z 34013G18KT 00/M04 A3029 RMK A01 T00021041  RH  073%=      5-min Rain = 0
KQU1 191511Z 35016G22KT 00/M04 A3029 RMK A01 T00021043  RH  072%=      5-min Rain = 0
KQU1 191512Z 35016KT 00/M04 A3029 RMK A01 T00021042  RH  072%=      5-min Rain = 0
KQU1 191513Z 36014G21KT 00/M04 A3029 RMK A01 T00021042  RH  072%=      5-min Rain = 0
KQU1 191514Z 34014KT 00/M04 A3029 RMK A01 T00031042  RH  072%=      5-min Rain = 0
KQU1 191515Z 34013KT 00/M04 A3029 RMK A01 T00031043  RH  072%=      5-min Rain = 0
KQU1 191516Z 35012KT 00/M04 A3029 RMK A01 T00031042  RH  072%=      5-min Rain = 0
KQU1 191517Z 35014G20KT 00/M04 A3029 RMK A01 T00031042  RH  072%=      5-min Rain = 0
KQU1 191518Z 35014G19KT 00/M04 A3029 RMK A01 T00031042  RH  072%=      5-min Rain = 0
KQU1 191519Z 34015KT 00/M04 A3029 RMK A01 T00031042  RH  072%=      5-min Rain = 0
KQU1 191520Z 35018G26KT 00/M04 A303 RMK A01 T00031042  RH  072%=      5-min Rain = 0
KQU1 191521Z 34018G27KT 00/M04 A303 RMK A01 T00021043  RH  071%=      5-min Rain = 0
KQU1 191522Z 34020G25KT 00/M04 A303 RMK A01 T00021043  RH  072%=      5-min Rain = 0
KQU1 191523Z 34019KT 00/M04 A303 RMK A01 T00021043  RH  071%=      5-min Rain = 0
KQU1 191524Z 34017G26KT 00/M04 A303 RMK A01 T00021043  RH  072%=      5-min Rain = 0
KQU1 191525Z 34018G24KT 00/M04 A303 RMK A01 T00021043  RH  071%=      5-min Rain = 0
KQU1 191526Z 34021G27KT 00/M04 A303 RMK A01 T00021043  RH  072%=      5-min Rain = 0
KQU1 191527Z 34019KT 00/M04 A303 RMK A01 T00021043  RH  071%=      5-min Rain = 0
KQU1 191528Z 34016G22KT 00/M04 A303 RMK A01 T00021043  RH  072%=      5-min Rain = 0
KQU1 191529Z 35021G29KT 00/M04 A303 RMK A01 T00031043  RH  072%=      5-min Rain = 0
KQU1 191530Z 36018G25KT 00/M04 A303 RMK A01 T00031042  RH  072%=      5-min Rain = 0
KQU1 191531Z 34016G23KT 00/M04 A303 RMK A01 T00031042  RH  072%=      5-min Rain = 0
KQU1 191532Z 33017G24KT 00/M04 A303 RMK A01 T00041042  RH  072%=      5-min Rain = 0
KQU1 191533Z 35016KT 00/M04 A303 RMK A01 T00041041  RH  072%=      5-min Rain = 0
KQU1 191534Z 34017G23KT 01/M04 A303 RMK A01 T00051040  RH  072%=      5-min Rain = 0
KQU1 191535Z 34018KT 01/M04 A303 RMK A01 T00051042  RH  071%=      5-min Rain = 0
KQU1 191536Z 34019G27KT 01/M04 A303 RMK A01 T00051042  RH  071%=      5-min Rain = 0
KQU1 191537Z 34015KT 01/M04 A303 RMK A01 T00051043  RH  071%=      5-min Rain = 0
KQU1 191538Z 35012KT 01/M04 A303 RMK A01 T00051041  RH  071%=      5-min Rain = 0
KQU1 191539Z 34014KT 01/M04 A303 RMK A01 T00061041  RH  071%=      5-min Rain = 0
KQU1 191540Z 34012G17KT 01/M04 A303 RMK A01 T00061041  RH  071%=      5-min Rain = 0
KQU1 191541Z 33015KT 01/M04 A3031 RMK A01 T00071041  RH  071%=      5-min Rain = 0
KQU1 191542Z 34016G21KT 01/M04 A3031 RMK A01 T00061042  RH  070%=      5-min Rain = 0
KQU1 191543Z 35015G22KT 01/M04 A303 RMK A01 T00071041  RH  070%=      5-min Rain = 0
KQU1 191544Z 34020KT 01/M04 A303 RMK A01 T00071041  RH  070%=      5-min Rain = 0
KQU1 191545Z 35017G23KT 01/M04 A3031 RMK A01 T00071041  RH  070%=      5-min Rain = 0
KQU1 191546Z 35013KT 01/M04 A3031 RMK A01 T00081039  RH  071%=      5-min Rain = 0
KQU1 191547Z 33013KT 01/M04 A3031 RMK A01 T00091040  RH  070%=      5-min Rain = 0
KQU1 191548Z 34016G23KT 01/M04 A3031 RMK A01 T00091041  RH  069%=      5-min Rain = 0
KQU1 191549Z 34018G32KT 01/M04 A3031 RMK A01 T00091041  RH  069%=      5-min Rain = 0
KQU1 191550Z 33024G29KT 01/M04 A3031 RMK A01 T00081042  RH  069%=      5-min Rain = 0
KQU1 191551Z 33017KT 01/M04 A3031 RMK A01 T00081042  RH  069%=      5-min Rain = 0
KQU1 191552Z 36016G28KT 01/M04 A3031 RMK A01 T00091042  RH  069%=      5-min Rain = 0
KQU1 191553Z 34015KT 01/M04 A3031 RMK A01 T00091041  RH  069%=      5-min Rain = 0
KQU1 191554Z 34014G20KT 01/M04 A3031 RMK A01 T00091041  RH  069%=      5-min Rain = 0
KQU1 191555Z 35016G22KT 01/M04 A3031 RMK A01 T00091042  RH  069%=      5-min Rain = 0
KQU1 191556Z 34015KT 01/M04 A3031 RMK A01 T00101040  RH  069%=      5-min Rain = 0
KQU1 191557Z 35020KT 01/M04 A3031 RMK A01 T00101042  RH  068%=      5-min Rain = 0
KQU1 191558Z 35017G22KT 01/M04 A3031 RMK A01 T00101042  RH  068%=      5-min Rain = 0
KQU1 191559Z 34014G19KT 01/M04 A3031 RMK A01 T00101041  RH  069%=      5-min Rain = 0
KQU1 191600Z 34019KT 01/M04 A3031 RMK A01 T00101041  RH  069%=      5-min Rain = 0
KQU1 191601Z 33017KT 01/M04 A3031 RMK A01 T00101042  RH  068%=      5-min Rain = 0
KQU1 191602Z 34014G19KT 01/M04 A3031 RMK A01 T00101042  RH  068%=      5-min Rain = 0
KQU1 191603Z 34017KT 01/M04 A3031 RMK A01 T00101043  RH  068%=      5-min Rain = 0
KQU1 191604Z 34017G22KT 01/M04 A3031 RMK A01 T00091043  RH  068%=      5-min Rain = 0
KQU1 191605Z 34017G23KT 01/M04 A3031 RMK A01 T00091043  RH  068%=      5-min Rain = 0
KQU1 191606Z 34013KT 01/M04 A3031 RMK A01 T00091042  RH  069%=      5-min Rain = 0
KQU1 191607Z 34016KT 01/M04 A3031 RMK A01 T00091042  RH  068%=      5-min Rain = 0
KQU1 191608Z 34016KT 01/M04 A3032 RMK A01 T00091043  RH  068%=      5-min Rain = 0
KQU1 191609Z 34019G24KT 01/M04 A3032 RMK A01 T00101042  RH  068%=      5-min Rain = 0
KQU1 191610Z 35017KT 01/M04 A3032 RMK A01 T00101043  RH  068%=      5-min Rain = 0
KQU1 191611Z 34011G16KT 01/M04 A3032 RMK A01 T00101041  RH  068%=      5-min Rain = 0
KQU1 191612Z 33015G24KT 01/M04 A3032 RMK A01 T00111042  RH  068%=      5-min Rain = 0
KQU1 191613Z 34017G24KT 01/M04 A3032 RMK A01 T00121041  RH  068%=      5-min Rain = 0
KQU1 191614Z 35019G26KT 01/M04 A3032 RMK A01 T00131041  RH  067%=      5-min Rain = 0
KQU1 191615Z 35019G26KT 01/M04 A3031 RMK A01 T00131041  RH  067%=      5-min Rain = 0
KQU1 191616Z 34016KT 01/M04 A3032 RMK A01 T00141041  RH  067%=      5-min Rain = 0
KQU1 191617Z 34016G21KT 01/M04 A3032 RMK A01 T00141040  RH  067%=      5-min Rain = 0
KQU1 191618Z 34017G23KT 02/M04 A3032 RMK A01 T00151041  RH  066%=      5-min Rain = 0
KQU1 191619Z 35019G28KT 02/M04 A3032 RMK A01 T00151041  RH  066%=      5-min Rain = 0
KQU1 191620Z 34021G26KT 01/M04 A3032 RMK A01 T00141041  RH  066%=      5-min Rain = 0
KQU1 191621Z 34018G23KT 01/M04 A3032 RMK A01 T00141042  RH  067%=      5-min Rain = 0
KQU1 191622Z 34018KT 01/M04 A3032 RMK A01 T00131042  RH  067%=      5-min Rain = 0
KQU1 191623Z 35015G23KT 01/M04 A3032 RMK A01 T00131041  RH  067%=      5-min Rain = 0
KQU1 191624Z 34018KT 01/M04 A3032 RMK A01 T00131041  RH  067%=      5-min Rain = 0
KQU1 191625Z 35019G24KT 01/M04 A3032 RMK A01 T00141041  RH  067%=      5-min Rain = 0
KQU1 191626Z 35019G24KT 01/M04 A3032 RMK A01 T00141041  RH  067%=      5-min Rain = 0
KQU1 191627Z 33018KT 01/M04 A3032 RMK A01 T00141042  RH  066%=      5-min Rain = 0
KQU1 191628Z 33017G23KT 01/M04 A3032 RMK A01 T00131043  RH  066%=      5-min Rain = 0
KQU1 191629Z 34021KT 01/M04 A3032 RMK A01 T00121043  RH  067%=      5-min Rain = 0
KQU1 191630Z 34019G26KT 01/M04 A3032 RMK A01 T00111044  RH  067%=      5-min Rain = 0
KQU1 191631Z 34014G20KT 01/M04 A3032 RMK A01 T00101042  RH  068%=      5-min Rain = 0
KQU1 191632Z 35021G26KT 01/M04 A3032 RMK A01 T00101043  RH  068%=      5-min Rain = 0
KQU1 191633Z 34020KT 01/M04 A3032 RMK A01 T00101042  RH  068%=      5-min Rain = 0
KQU1 191634Z 35018KT 01/M04 A3032 RMK A01 T00101043  RH  068%=      5-min Rain = 0
KQU1 191635Z 35016KT 01/M04 A3032 RMK A01 T00111042  RH  068%=      5-min Rain = 0
KQU1 191636Z 35018KT 01/M04 A3032 RMK A01 T00111042  RH  068%=      5-min Rain = 0
KQU1 191637Z 33014KT 01/M04 A3032 RMK A01 T00111042  RH  068%=      5-min Rain = 0
KQU1 191638Z 33016KT 01/M04 A3033 RMK A01 T00121041  RH  067%=      5-min Rain = 0
KQU1 191639Z 34015KT 01/M04 A3032 RMK A01 T00121042  RH  067%=      5-min Rain = 0
KQU1 191640Z 35010G17KT 01/M04 A3033 RMK A01 T00131040  RH  068%=      5-min Rain = 0
KQU1 191641Z 35013G22KT 02/M04 A3033 RMK A01 T00151038  RH  068%=      5-min Rain = 0
KQU1 191642Z 34018G23KT 02/M04 A3033 RMK A01 T00171039  RH  066%=      5-min Rain = 0
KQU1 191643Z 36017G24KT 02/M04 A3033 RMK A01 T00171040  RH  066%=      5-min Rain = 0
KQU1 191644Z 35016G22KT 02/M04 A3033 RMK A01 T00181039  RH  066%=      5-min Rain = 0
KQU1 191645Z 34020KT 02/M04 A3033 RMK A01 T00181042  RH  065%=      5-min Rain = 0
KQU1 191646Z 34014G19KT 02/M04 A3033 RMK A01 T00171041  RH  066%=      5-min Rain = 0
KQU1 191647Z 35017KT 02/M04 A3033 RMK A01 T00171040  RH  066%=      5-min Rain = 0
KQU1 191648Z 34018G25KT 02/M04 A3033 RMK A01 T00181040  RH  065%=      5-min Rain = 0
KQU1 191649Z 35016KT 02/M04 A3033 RMK A01 T00181041  RH  065%=      5-min Rain = 0
KQU1 191650Z 36012G20KT 02/M04 A3033 RMK A01 T00191039  RH  066%=      5-min Rain = 0
KQU1 191651Z 34013G20KT 02/M04 A3033 RMK A01 T00211038  RH  065%=      5-min Rain = 0
KQU1 191652Z 36012G18KT 02/M04 A3033 RMK A01 T00211038  RH  065%=      5-min Rain = 0
KQU1 191653Z 36011G16KT 02/M04 A3033 RMK A01 T00221037  RH  065%=      5-min Rain = 0
KQU1 191654Z 00012KT 02/M04 A3033 RMK A01 T00231037  RH  064%=      5-min Rain = 0
KQU1 191655Z 35011KT 02/M04 A3033 RMK A01 T00241037  RH  064%=      5-min Rain = 0
KQU1 191656Z 35014KT 03/M04 A3033 RMK A01 T00251036  RH  064%=      5-min Rain = 0
KQU1 191657Z 35016G23KT 03/M04 A3033 RMK A01 T00251038  RH  063%=      5-min Rain = 0
KQU1 191658Z 00015G20KT 03/M04 A3033 RMK A01 T00251038  RH  063%=      5-min Rain = 0
KQU1 191659Z 35013G19KT 03/M04 A3033 RMK A01 T00251037  RH  064%=      5-min Rain = 0
KQU1 191700Z 35009G15KT 03/M04 A3033 RMK A01 T00271036  RH  064%=      5-min Rain = 0
KQU1 191701Z 35014G23KT 03/M04 A3033 RMK A01 T00281036  RH  063%=      5-min Rain = 0
KQU1 191702Z 35019KT 03/M04 A3033 RMK A01 T00271039  RH  062%=      5-min Rain = 0
KQU1 191703Z 34018G24KT 03/M04 A3033 RMK A01 T00261039  RH  062%=      5-min Rain = 0
KQU1 191704Z 34018G23KT 03/M04 A3033 RMK A01 T00261039  RH  062%=      5-min Rain = 0
KQU1 191705Z 34017KT 03/M04 A3033 RMK A01 T00271038  RH  062%=      5-min Rain = 0
KQU1 191706Z 35014KT 03/M04 A3033 RMK A01 T00271039  RH  062%=      5-min Rain = 0
KQU1 191707Z 34014G21KT 03/M04 A3033 RMK A01 T00271037  RH  063%=      5-min Rain = 0
KQU1 191708Z 35017G22KT 03/M04 A3033 RMK A01 T00271038  RH  062%=      5-min Rain = 0
KQU1 191709Z 35014G20KT 03/M04 A3033 RMK A01 T00281036  RH  063%=      5-min Rain = 0
KQU1 191710Z 34019G24KT 03/M04 A3033 RMK A01 T00281038  RH  062%=      5-min Rain = 0
KQU1 191711Z 34019KT 03/M04 A3033 RMK A01 T00281040  RH  061%=      5-min Rain = 0
KQU1 191712Z 36017G23KT 03/M04 A3033 RMK A01 T00281038  RH  062%=      5-min Rain = 0
KQU1 191713Z 35014G21KT 03/M04 A3033 RMK A01 T00281038  RH  062%=      5-min Rain = 0
KQU1 191714Z 36014KT 03/M04 A3033 RMK A01 T00291037  RH  062%=      5-min Rain = 0
KQU1 191715Z 35013G23KT 03/M04 A3033 RMK A01 T00301036  RH  062%=      5-min Rain = 0
KQU1 191716Z 35013G22KT 03/M04 A3033 RMK A01 T00311036  RH  062%=      5-min Rain = 0
KQU1 191717Z 35016G21KT 03/M04 A3033 RMK A01 T00311038  RH  061%=      5-min Rain = 0
KQU1 191718Z 35015G22KT 03/M04 A3033 RMK A01 T00301038  RH  061%=      5-min Rain = 0
KQU1 191719Z 36015KT 03/M04 A3033 RMK A01 T00301037  RH  061%=      5-min Rain = 0
KQU1 191720Z 35013G21KT 03/M04 A3033 RMK A01 T00301038  RH  061%=      5-min Rain = 0
KQU1 191721Z 35011G18KT 03/M04 A3033 RMK A01 T00301037  RH  061%=      5-min Rain = 0
KQU1 191722Z 35011G16KT 03/M04 A3033 RMK A01 T00311036  RH  061%=      5-min Rain = 0
KQU1 191723Z 33015KT 03/M04 A3033 RMK A01 T00321036  RH  061%=      5-min Rain = 0
KQU1 191724Z 33012KT 03/M04 A3033 RMK A01 T00321037  RH  060%=      5-min Rain = 0
KQU1 191725Z 33016G22KT 03/M04 A3033 RMK A01 T00321038  RH  060%=      5-min Rain = 0
KQU1 191726Z 33014KT 03/M04 A3033 RMK A01 T00321039  RH  060%=      5-min Rain = 0
KQU1 191727Z 32014G20KT 03/M04 A3033 RMK A01 T00321037  RH  060%=      5-min Rain = 0
KQU1 191728Z 35015KT 03/M04 A3033 RMK A01 T00331038  RH  060%=      5-min Rain = 0
KQU1 191729Z 35016G21KT 03/M04 A3033 RMK A01 T00311038  RH  060%=      5-min Rain = 0
KQU1 191730Z 35013G18KT 03/M04 A3033 RMK A01 T00311038  RH  061%=      5-min Rain = 0
KQU1 191731Z 35014G23KT 03/M04 A3033 RMK A01 T00311037  RH  061%=      5-min Rain = 0
KQU1 191732Z 35017G22KT 03/M04 A3033 RMK A01 T00311038  RH  061%=      5-min Rain = 0
KQU1 191733Z 33015G21KT 03/M04 A3033 RMK A01 T00301040  RH  060%=      5-min Rain = 0
KQU1 191734Z 34013KT 03/M04 A3033 RMK A01 T00291039  RH  061%=      5-min Rain = 0
KQU1 191735Z 34016KT 03/M04 A3033 RMK A01 T00291039  RH  061%=      5-min Rain = 0
KQU1 191736Z 34010G18KT 03/M04 A3033 RMK A01 T00291038  RH  061%=      5-min Rain = 0
KQU1 191737Z 32011G17KT 03/M04 A3033 RMK A01 T00311035  RH  062%=      5-min Rain = 0
KQU1 191738Z 34011G16KT 03/M04 A3033 RMK A01 T00321037  RH  060%=      5-min Rain = 0
KQU1 191739Z 34011G16KT 03/M04 A3033 RMK A01 T00321036  RH  061%=      5-min Rain = 0
KQU1 191740Z 36012G17KT 03/M04 A3033 RMK A01 T00331037  RH  060%=      5-min Rain = 0
KQU1 191741Z 00012G18KT 03/M04 A3033 RMK A01 T00331035  RH  061%=      5-min Rain = 0
KQU1 191742Z 35014G22KT 03/M04 A3033 RMK A01 T00331036  RH  060%=      5-min Rain = 0
KQU1 191743Z 36014G23KT 03/M04 A3033 RMK A01 T00331036  RH  060%=      5-min Rain = 0
KQU1 191744Z 35016G22KT 03/M04 A3033 RMK A01 T00331037  RH  060%=      5-min Rain = 0
KQU1 191745Z 34018G24KT 03/M04 A3033 RMK A01 T00321038  RH  060%=      5-min Rain = 0
KQU1 191746Z 34015G20KT 03/M04 A3033 RMK A01 T00311038  RH  061%=      5-min Rain = 0
KQU1 191747Z 35017KT 03/M04 A3033 RMK A01 T00311037  RH  061%=      5-min Rain = 0
KQU1 191748Z 34013KT 03/M04 A3033 RMK A01 T00311037  RH  061%=      5-min Rain = 0
KQU1 191749Z 35014G20KT 03/M04 A3033 RMK A01 T00321037  RH  061%=      5-min Rain = 0
KQU1 191750Z 35013KT 03/M04 A3033 RMK A01 T00311037  RH  061%=      5-min Rain = 0
KQU1 191751Z 36012KT 03/M04 A3033 RMK A01 T00321036  RH  061%=      5-min Rain = 0
KQU1 191752Z 35011KT 03/M04 A3033 RMK A01 T00321036  RH  061%=      5-min Rain = 0
KQU1 191753Z 34012KT 03/M04 A3033 RMK A01 T00321036  RH  061%=      5-min Rain = 0
KQU1 191754Z 35014KT 03/M04 A3033 RMK A01 T00321039  RH  060%=      5-min Rain = 0
KQU1 191755Z 34008KT 03/M04 A3033 RMK A01 T00301038  RH  061%=      5-min Rain = 0
KQU1 191756Z 36011KT 03/M04 A3033 RMK A01 T00311035  RH  062%=      5-min Rain = 0
KQU1 191757Z 35013G19KT 03/M04 A3033 RMK A01 T00331035  RH  061%=      5-min Rain = 0
KQU1 191758Z 34012G17KT 03/M04 A3033 RMK A01 T00321037  RH  060%=      5-min Rain = 0
KQU1 191759Z 35009G15KT 03/M04 A3032 RMK A01 T00321035  RH  061%=      5-min Rain = 0
KQU1 191800Z 34013KT 03/M04 A3032 RMK A01 T00341036  RH  060%=      5-min Rain = 0
KQU1 191801Z 35009G14KT 03/M04 A3032 RMK A01 T00341035  RH  061%=      5-min Rain = 0
KQU1 191802Z 34015G20KT 03/M04 A3032 RMK A01 T00341037  RH  060%=      5-min Rain = 0
KQU1 191803Z 34013KT 03/M04 A3032 RMK A01 T00341037  RH  060%=      5-min Rain = 0
KQU1 191804Z 35013KT 03/M04 A3032 RMK A01 T00331037  RH  060%=      5-min Rain = 0
KQU1 191805Z 34011KT 03/M04 A3032 RMK A01 T00321038  RH  060%=      5-min Rain = 0
KQU1 191806Z 34011KT 03/M04 A3032 RMK A01 T00321037  RH  061%=      5-min Rain = 0
KQU1 191807Z 34008KT 03/M03 A3032 RMK A01 T00331034  RH  061%=      5-min Rain = 0
KQU1 191808Z 00011KT 04/M03 A3032 RMK A01 T00351034  RH  061%=      5-min Rain = 0
KQU1 191809Z 34014G19KT 04/M03 A3032 RMK A01 T00371034  RH  060%=      5-min Rain = 0
KQU1 191810Z 36014KT 04/M04 A3032 RMK A01 T00361036  RH  059%=      5-min Rain = 0
KQU1 191811Z 35013G19KT 04/M03 A3032 RMK A01 T00361034  RH  060%=      5-min Rain = 0
KQU1 191812Z 34016KT 04/M04 A3032 RMK A01 T00371035  RH  059%=      5-min Rain = 0
KQU1 191813Z 35011G16KT 04/M04 A3032 RMK A01 T00361035  RH  060%=      5-min Rain = 0
KQU1 191814Z 35012KT 04/M03 A3032 RMK A01 T00371034  RH  060%=      5-min Rain = 0
KQU1 191815Z 35011KT 04/M03 A3031 RMK A01 T00381033  RH  059%=      5-min Rain = 0
KQU1 191816Z 34012KT 04/M03 A3031 RMK A01 T00391034  RH  059%=      5-min Rain = 0
KQU1 191817Z 33011KT 04/M03 A3031 RMK A01 T00411032  RH  059%=      5-min Rain = 0
KQU1 191818Z 36005G10KT 04/M03 A3031 RMK A01 T00431030  RH  059%=      5-min Rain = 0
KQU1 191819Z 34008KT 05/M03 A3031 RMK A01 T00451029  RH  058%=      5-min Rain = 0
KQU1 191820Z 34010KT 05/M03 A3031 RMK A01 T00461033  RH  056%=      5-min Rain = 0
KQU1 191821Z 36017G22KT 05/M03 A3031 RMK A01 T00451034  RH  057%=      5-min Rain = 0
KQU1 191822Z 35016KT 04/M03 A3031 RMK A01 T00431034  RH  057%=      5-min Rain = 0
KQU1 191823Z 35011G16KT 04/M03 A3031 RMK A01 T00431033  RH  058%=      5-min Rain = 0
KQU1 191824Z 35013G21KT 04/M03 A3031 RMK A01 T00441033  RH  057%=      5-min Rain = 0
KQU1 191825Z 36014G19KT 04/M03 A3031 RMK A01 T00441034  RH  057%=      5-min Rain = 0
KQU1 191826Z 34013KT 05/M03 A3031 RMK A01 T00451034  RH  057%=      5-min Rain = 0
KQU1 191827Z 34015KT 05/M04 A3031 RMK A01 T00451036  RH  056%=      5-min Rain = 0
KQU1 191828Z 34017G24KT 05/M03 A3031 RMK A01 T00451034  RH  056%=      5-min Rain = 0
KQU1 191829Z 35012G22KT 05/M03 A3031 RMK A01 T00451033  RH  057%=      5-min Rain = 0
KQU1 191830Z 35015KT 05/M03 A3031 RMK A01 T00451033  RH  057%=      5-min Rain = 0
KQU1 191831Z 35012KT 05/M03 A3031 RMK A01 T00451034  RH  056%=      5-min Rain = 0
KQU1 191832Z 00012KT 05/M03 A3031 RMK A01 T00451034  RH  057%=      5-min Rain = 0
KQU1 191833Z 01010G16KT 05/M03 A3031 RMK A01 T00461032  RH  057%=      5-min Rain = 0
KQU1 191834Z 35010KT 05/M03 A3031 RMK A01 T00471031  RH  057%=      5-min Rain = 0
KQU1 191835Z 35011G18KT 05/M03 A3031 RMK A01 T00491031  RH  056%=      5-min Rain = 0
KQU1 191836Z 01014G21KT 05/M03 A3031 RMK A01 T00501033  RH  055%=      5-min Rain = 0
KQU1 191837Z 35008G15KT 05/M03 A3031 RMK A01 T00491033  RH  055%=      5-min Rain = 0
KQU1 191838Z 34010KT 05/M03 A3031 RMK A01 T00491031  RH  056%=      5-min Rain = 0
KQU1 191839Z 34010KT 05/M03 A3031 RMK A01 T00491032  RH  056%=      5-min Rain = 0
KQU1 191840Z 35017G22KT 05/M03 A3031 RMK A01 T00501033  RH  055%=      5-min Rain = 0
KQU1 191841Z 34017KT 05/M04 A3031 RMK A01 T00491036  RH  054%=      5-min Rain = 0
KQU1 191842Z 34014KT 05/M04 A3031 RMK A01 T00481035  RH  055%=      5-min Rain = 0
KQU1 191843Z 35011KT 05/M03 A3031 RMK A01 T00481034  RH  055%=      5-min Rain = 0
KQU1 191844Z 35009KT 05/M04 A3031 RMK A01 T00481035  RH  055%=      5-min Rain = 0
KQU1 191845Z 33012KT 05/M03 A3031 RMK A01 T00491034  RH  055%=      5-min Rain = 0
KQU1 191846Z 35014KT 05/M04 A3031 RMK A01 T00501035  RH  054%=      5-min Rain = 0
KQU1 191847Z 35014KT 05/M04 A3031 RMK A01 T00491036  RH  054%=      5-min Rain = 0
KQU1 191848Z 36013KT 05/M04 A3031 RMK A01 T00481035  RH  055%=      5-min Rain = 0
KQU1 191849Z 35014G20KT 05/M03 A303 RMK A01 T00491034  RH  055%=      5-min Rain = 0
KQU1 191850Z 36013KT 05/M03 A3031 RMK A01 T00491034  RH  055%=      5-min Rain = 0
KQU1 191851Z 35012KT 05/M03 A3031 RMK A01 T00501034  RH  054%=      5-min Rain = 0
KQU1 191852Z 00010G18KT 05/M03 A303 RMK A01 T00511033  RH  055%=      5-min Rain = 0
KQU1 191853Z 36014KT 05/M03 A303 RMK A01 T00511034  RH  054%=      5-min Rain = 0
KQU1 191854Z 34012G18KT 05/M03 A303 RMK A01 T00511034  RH  054%=      5-min Rain = 0
KQU1 191855Z 35010KT 05/M04 A303 RMK A01 T00511035  RH  054%=      5-min Rain = 0
KQU1 191856Z 35013KT 05/M03 A303 RMK A01 T00521034  RH  054%=      5-min Rain = 0
KQU1 191857Z 34010KT 05/M03 A303 RMK A01 T00521033  RH  054%=      5-min Rain = 0
KQU1 191858Z 35011KT 05/M03 A303 RMK A01 T00531034  RH  053%=      5-min Rain = 0
KQU1 191859Z 35015KT 05/M04 A303 RMK A01 T00531035  RH  053%=      5-min Rain = 0
KQU1 191900Z 35015KT 05/M04 A303 RMK A01 T00531035  RH  053%=      5-min Rain = 0
KQU1 191901Z 36012KT 05/M03 A303 RMK A01 T00531034  RH  053%=      5-min Rain = 0
KQU1 191902Z 34012G17KT 05/M03 A303 RMK A01 T00541033  RH  053%=      5-min Rain = 0
KQU1 191903Z 35015KT 05/M04 A303 RMK A01 T00541036  RH  052%=      5-min Rain = 0
KQU1 191904Z 36014G20KT 06/M03 A303 RMK A01 T00561033  RH  053%=      5-min Rain = 0
KQU1 191905Z 35014KT 06/M03 A303 RMK A01 T00571034  RH  052%=      5-min Rain = 0
KQU1 191906Z 35013G18KT 06/M03 A303 RMK A01 T00571034  RH  052%=      5-min Rain = 0
KQU1 191907Z 36018G23KT 06/M04 A303 RMK A01 T00581036  RH  051%=      5-min Rain = 0
KQU1 191908Z 00018KT 06/M04 A303 RMK A01 T00571036  RH  051%=      5-min Rain = 0
KQU1 191909Z 36014G21KT 06/M04 A303 RMK A01 T00561036  RH  052%=      5-min Rain = 0
KQU1 191910Z 36014G19KT 06/M04 A303 RMK A01 T00571036  RH  051%=      5-min Rain = 0
KQU1 191911Z 34013G22KT 06/M04 A303 RMK A01 T00561035  RH  052%=      5-min Rain = 0
KQU1 191912Z 35013G19KT 06/M03 A303 RMK A01 T00571034  RH  052%=      5-min Rain = 0
KQU1 191913Z 00016G22KT 06/M03 A3029 RMK A01 T00581033  RH  052%=      5-min Rain = 0
KQU1 191914Z 35016KT 06/M03 A303 RMK A01 T00581034  RH  052%=      5-min Rain = 0
KQU1 191915Z 35015KT 06/M03 A303 RMK A01 T00571034  RH  052%=      5-min Rain = 0
KQU1 191916Z 35013KT 06/M03 A3029 RMK A01 T00571034  RH  052%=      5-min Rain = 0
KQU1 191917Z 35016KT 06/M03 A3029 RMK A01 T00561034  RH  052%=      5-min Rain = 0
KQU1 191918Z 36015KT 06/M03 A3029 RMK A01 T00561034  RH  052%=      5-min Rain = 0
KQU1 191919Z 34015G21KT 06/M04 A3029 RMK A01 T00561036  RH  052%=      5-min Rain = 0
KQU1 191920Z 34011KT 06/M04 A3029 RMK A01 T00551037  RH  052%=      5-min Rain = 0
KQU1 191921Z 34011KT 06/M04 A3029 RMK A01 T00551035  RH  052%=      5-min Rain = 0
KQU1 191922Z 35011G19KT 06/M03 A3029 RMK A01 T00561033  RH  053%=      5-min Rain = 0
KQU1 191923Z 34015G20KT 06/M03 A3029 RMK A01 T00581032  RH  052%=      5-min Rain = 0
KQU1 191924Z 34015KT 06/M04 A3029 RMK A01 T00581036  RH  051%=      5-min Rain = 0
KQU1 191925Z 34014G21KT 06/M04 A3029 RMK A01 T00571036  RH  051%=      5-min Rain = 0
KQU1 191926Z 33018G25KT 06/M04 A3029 RMK A01 T00571038  RH  050%=      5-min Rain = 0
KQU1 191927Z 35019G24KT 06/M04 A3029 RMK A01 T00561038  RH  051%=      5-min Rain = 0
KQU1 191928Z 34019KT 06/M04 A3029 RMK A01 T00551038  RH  051%=      5-min Rain = 0
KQU1 191929Z 35018G23KT 05/M04 A3028 RMK A01 T00541039  RH  051%=      5-min Rain = 0
KQU1 191930Z 35014G22KT 05/M04 A3028 RMK A01 T00531036  RH  053%=      5-min Rain = 0
KQU1 191931Z 35016KT 05/M04 A3028 RMK A01 T00541035  RH  052%=      5-min Rain = 0
KQU1 191932Z 34018KT 05/M04 A3028 RMK A01 T00541037  RH  052%=      5-min Rain = 0
KQU1 191933Z 35017G22KT 05/M04 A3028 RMK A01 T00531039  RH  052%=      5-min Rain = 0
KQU1 191934Z 34014G19KT 05/M04 A3028 RMK A01 T00531037  RH  052%=      5-min Rain = 0
KQU1 191935Z 34015KT 05/M04 A3028 RMK A01 T00531037  RH  052%=      5-min Rain = 0
KQU1 191936Z 34015KT 05/M04 A3028 RMK A01 T00541037  RH  052%=      5-min Rain = 0
KQU1 191937Z 35010KT 05/M04 A3028 RMK A01 T00541037  RH  052%=      5-min Rain = 0
KQU1 191938Z 34012KT 06/M03 A3028 RMK A01 T00551034  RH  053%=      5-min Rain = 0
KQU1 191939Z 33013G18KT 06/M04 A3028 RMK A01 T00561035  RH  052%=      5-min Rain = 0
KQU1 191940Z 33013G18KT 06/M04 A3028 RMK A01 T00561035  RH  052%=      5-min Rain = 0
KQU1 191941Z 32016KT 06/M04 A3027 RMK A01 T00571036  RH  051%=      5-min Rain = 0
KQU1 191942Z 34013KT 06/M04 A3028 RMK A01 T00571035  RH  051%=      5-min Rain = 0
KQU1 191943Z 35016KT 06/M04 A3028 RMK A01 T00581035  RH  051%=      5-min Rain = 0
KQU1 191944Z 34013KT 06/M04 A3028 RMK A01 T00581035  RH  051%=      5-min Rain = 0
KQU1 191945Z 34013G18KT 06/M03 A3028 RMK A01 T00581034  RH  052%=      5-min Rain = 0
KQU1 191946Z 35007G12KT 06/M03 A3027 RMK A01 T00581034  RH  052%=      5-min Rain = 0
KQU1 191947Z 34013G18KT 06/M03 A3027 RMK A01 T00591034  RH  051%=      5-min Rain = 0
KQU1 191948Z 34014KT 06/M04 A3027 RMK A01 T00581037  RH  051%=      5-min Rain = 0
KQU1 191949Z 34013G19KT 06/M04 A3027 RMK A01 T00571036  RH  051%=      5-min Rain = 0
KQU1 191950Z 31014KT 06/M03 A3027 RMK A01 T00591034  RH  051%=      5-min Rain = 0
KQU1 191951Z 32014KT 06/M04 A3027 RMK A01 T00601035  RH  050%=      5-min Rain = 0
KQU1 191952Z 33016G22KT 06/M04 A3027 RMK A01 T00601038  RH  049%=      5-min Rain = 0
KQU1 191953Z 33015KT 06/M04 A3027 RMK A01 T00591039  RH  049%=      5-min Rain = 0
KQU1 191954Z 34012KT 06/M04 A3027 RMK A01 T00591037  RH  050%=      5-min Rain = 0
KQU1 191955Z 32013G18KT 06/M04 A3027 RMK A01 T00601037  RH  050%=      5-min Rain = 0
KQU1 191956Z 34017KT 06/M04 A3027 RMK A01 T00611038  RH  049%=      5-min Rain = 0
KQU1 191957Z 34016G22KT 06/M04 A3027 RMK A01 T00591039  RH  049%=      5-min Rain = 0
KQU1 191958Z 34016KT 06/M04 A3027 RMK A01 T00591036  RH  050%=      5-min Rain = 0
KQU1 191959Z 35019G24KT 06/M04 A3027 RMK A01 T00591037  RH  050%=      5-min Rain = 0
KQU1 192000Z 35017KT 06/M04 A3027 RMK A01 T00591037  RH  050%=      5-min Rain = 0
KQU1 192001Z 35016KT 06/M04 A3027 RMK A01 T00581037  RH  050%=      5-min Rain = 0
KQU1 192002Z 35014KT 06/M04 A3027 RMK A01 T00591035  RH  051%=      5-min Rain = 0
KQU1 192003Z 35014G20KT 06/M04 A3027 RMK A01 T00601036  RH  050%=      5-min Rain = 0
KQU1 192004Z 35016G21KT 06/M04 A3027 RMK A01 T00601037  RH  050%=      5-min Rain = 0
KQU1 192005Z 35016KT 06/M04 A3027 RMK A01 T00601037  RH  050%=      5-min Rain = 0
KQU1 192006Z 36013G18KT 06/M04 A3027 RMK A01 T00601035  RH  050%=      5-min Rain = 0
KQU1 192007Z 35013G18KT 06/M03 A3027 RMK A01 T00621034  RH  050%=      5-min Rain = 0
KQU1 192008Z 35011G16KT 06/M03 A3027 RMK A01 T00621034  RH  050%=      5-min Rain = 0
KQU1 192009Z 35012G17KT 06/M04 A3027 RMK A01 T00621035  RH  050%=      5-min Rain = 0
KQU1 192010Z 35015KT 06/M04 A3027 RMK A01 T00621035  RH  050%=      5-min Rain = 0
KQU1 192011Z 33012KT 06/M04 A3027 RMK A01 T00621036  RH  049%=      5-min Rain = 0
KQU1 192012Z 33009KT 06/M03 A3027 RMK A01 T00641034  RH  050%=      5-min Rain = 0
KQU1 192013Z 35009KT 07/M04 A3027 RMK A01 T00651035  RH  049%=      5-min Rain = 0
KQU1 192014Z 35012KT 07/M03 A3027 RMK A01 T00651034  RH  049%=      5-min Rain = 0
KQU1 192015Z 34015KT 07/M04 A3026 RMK A01 T00651035  RH  049%=      5-min Rain = 0
KQU1 192016Z 33015KT 07/M04 A3027 RMK A01 T00651036  RH  049%=      5-min Rain = 0
KQU1 192017Z 33010KT 07/M03 A3027 RMK A01 T00661034  RH  049%=      5-min Rain = 0
KQU1 192018Z 33012KT 07/M04 A3027 RMK A01 T00671035  RH  048%=      5-min Rain = 0
KQU1 192019Z 33015KT 07/M04 A3026 RMK A01 T00671036  RH  048%=      5-min Rain = 0
KQU1 192020Z 33016G21KT 07/M04 A3026 RMK A01 T00661038  RH  047%=      5-min Rain = 0
KQU1 192021Z 35017G23KT 07/M04 A3026 RMK A01 T00661036  RH  048%=      5-min Rain = 0
KQU1 192022Z 34017KT 07/M04 A3026 RMK A01 T00651037  RH  048%=      5-min Rain = 0
KQU1 192023Z 35016KT 06/M04 A3026 RMK A01 T00641037  RH  048%=      5-min Rain = 0
KQU1 192024Z 35014KT 06/M04 A3026 RMK A01 T00641036  RH  049%=      5-min Rain = 0
KQU1 192025Z 35011KT 07/M04 A3026 RMK A01 T00651036  RH  049%=      5-min Rain = 0
KQU1 192026Z 36008G14KT 07/M04 A3026 RMK A01 T00651035  RH  049%=      5-min Rain = 0
KQU1 192027Z 33009KT 07/M03 A3026 RMK A01 T00661033  RH  049%=      5-min Rain = 0
KQU1 192028Z 34010KT 07/M03 A3026 RMK A01 T00671034  RH  048%=      5-min Rain = 0
KQU1 192029Z 35011G17KT 07/M03 A3026 RMK A01 T00681034  RH  048%=      5-min Rain = 0
KQU1 192030Z 34013KT 07/M04 A3026 RMK A01 T00691035  RH  048%=      5-min Rain = 0
KQU1 192031Z 34012KT 07/M04 A3026 RMK A01 T00691035  RH  048%=      5-min Rain = 0
KQU1 192032Z 34013G18KT 07/M04 A3026 RMK A01 T00681037  RH  047%=      5-min Rain = 0
KQU1 192033Z 34017KT 07/M04 A3026 RMK A01 T00671038  RH  047%=      5-min Rain = 0
KQU1 192034Z 34012KT 07/M04 A3026 RMK A01 T00661039  RH  047%=      5-min Rain = 0
KQU1 192035Z 34013KT 07/M03 A3026 RMK A01 T00661034  RH  049%=      5-min Rain = 0
KQU1 192036Z 34012KT 07/M04 A3026 RMK A01 T00671035  RH  048%=      5-min Rain = 0
KQU1 192037Z 36013KT 07/M03 A3026 RMK A01 T00671034  RH  048%=      5-min Rain = 0
KQU1 192038Z 35012KT 07/M03 A3026 RMK A01 T00681033  RH  048%=      5-min Rain = 0
KQU1 192039Z 35013G19KT 07/M04 A3026 RMK A01 T00681035  RH  048%=      5-min Rain = 0
KQU1 192040Z 35013G18KT 07/M04 A3026 RMK A01 T00671035  RH  048%=      5-min Rain = 0
KQU1 192041Z 35014KT 07/M04 A3026 RMK A01 T00671036  RH  048%=      5-min Rain = 0
KQU1 192042Z 34010G17KT 07/M04 A3026 RMK A01 T00671037  RH  047%=      5-min Rain = 0
KQU1 192043Z 34013G18KT 07/M04 A3026 RMK A01 T00671036  RH  048%=      5-min Rain = 0
KQU1 192044Z 34017KT 07/M04 A3026 RMK A01 T00671037  RH  047%=      5-min Rain = 0
KQU1 192045Z 34015KT 07/M04 A3027 RMK A01 T00671038  RH  047%=      5-min Rain = 0
KQU1 192046Z 32010KT 07/M04 A3026 RMK A01 T00661038  RH  047%=      5-min Rain = 0
KQU1 192047Z 34012G18KT 07/M04 A3027 RMK A01 T00671037  RH  047%=      5-min Rain = 0
KQU1 192048Z 35014KT 07/M04 A3027 RMK A01 T00681037  RH  047%=      5-min Rain = 0
KQU1 192049Z 33014KT 07/M04 A3026 RMK A01 T00681037  RH  047%=      5-min Rain = 0
KQU1 192050Z 35013KT 07/M04 A3027 RMK A01 T00681037  RH  047%=      5-min Rain = 0
KQU1 192051Z 00010G15KT 07/M04 A3027 RMK A01 T00681035  RH  048%=      5-min Rain = 0
KQU1 192052Z 36013G19KT 07/M03 A3027 RMK A01 T00691034  RH  048%=      5-min Rain = 0
KQU1 192053Z 34016KT 07/M04 A3027 RMK A01 T00691037  RH  047%=      5-min Rain = 0
KQU1 192054Z 33013KT 07/M04 A3027 RMK A01 T00681037  RH  047%=      5-min Rain = 0
KQU1 192055Z 00010KT 07/M04 A3027 RMK A01 T00681037  RH  047%=      5-min Rain = 0
KQU1 192056Z 35005KT 07/M04 A3027 RMK A01 T00691035  RH  048%=      5-min Rain = 0
KQU1 192057Z 34010KT 07/M03 A3027 RMK A01 T00701034  RH  047%=      5-min Rain = 0
KQU1 192058Z 34011KT 07/M04 A3027 RMK A01 T00701036  RH  047%=      5-min Rain = 0
KQU1 192059Z 33009KT 07/M04 A3027 RMK A01 T00701038  RH  046%=      5-min Rain = 0
KQU1 192100Z 35012G21KT 07/M04 A3027 RMK A01 T00711035  RH  047%=      5-min Rain = 0
KQU1 192101Z 34013G18KT 07/M04 A3027 RMK A01 T00711037  RH  046%=      5-min Rain = 0
KQU1 192102Z 34008KT 07/M04 A3027 RMK A01 T00701037  RH  046%=      5-min Rain = 0
KQU1 192103Z 35008KT 07/M04 A3027 RMK A01 T00711035  RH  047%=      5-min Rain = 0
KQU1 192104Z 00010KT 07/M04 A3027 RMK A01 T00721035  RH  046%=      5-min Rain = 0
KQU1 192105Z 35008KT 07/M04 A3027 RMK A01 T00721035  RH  046%=      5-min Rain = 0
KQU1 192106Z 34007KT 07/M04 A3027 RMK A01 T00721035  RH  046%=      5-min Rain = 0
KQU1 192107Z 33007KT 07/M04 A3027 RMK A01 T00731035  RH  046%=      5-min Rain = 0
KQU1 192108Z 34008KT 07/M04 A3027 RMK A01 T00741035  RH  046%=      5-min Rain = 0
KQU1 192109Z 34009KT 07/M04 A3027 RMK A01 T00741035  RH  046%=      5-min Rain = 0
KQU1 192110Z 34010KT 08/M04 A3027 RMK A01 T00751035  RH  045%=      5-min Rain = 0
KQU1 192111Z 35010G15KT 08/M03 A3027 RMK A01 T00761034  RH  046%=      5-min Rain = 0
KQU1 192112Z 34011KT 08/M03 A3027 RMK A01 T00761034  RH  046%=      5-min Rain = 0
KQU1 192113Z 33007KT 08/M03 A3027 RMK A01 T00771033  RH  046%=      5-min Rain = 0
KQU1 192114Z 34009KT 08/M03 A3027 RMK A01 T00781034  RH  045%=      5-min Rain = 0
KQU1 192115Z 33009G14KT 08/M03 A3027 RMK A01 T00781034  RH  045%=      5-min Rain = 0
KQU1 192116Z 33009KT 08/M04 A3027 RMK A01 T00781035  RH  045%=      5-min Rain = 0
KQU1 192117Z 32010KT 08/M04 A3027 RMK A01 T00791036  RH  044%=      5-min Rain = 0
KQU1 192118Z 33012KT 08/M04 A3027 RMK A01 T00781036  RH  044%=      5-min Rain = 0
KQU1 192119Z 32014KT 08/M04 A3027 RMK A01 T00781037  RH  044%=      5-min Rain = 0
KQU1 192120Z 32016KT 08/M04 A3027 RMK A01 T00771039  RH  044%=      5-min Rain = 0
KQU1 192121Z 33010KT 08/M04 A3027 RMK A01 T00761037  RH  045%=      5-min Rain = 0
KQU1 192122Z 32015KT 08/M04 A3028 RMK A01 T00781035  RH  045%=      5-min Rain = 0
KQU1 192123Z 32010KT 08/M04 A3027 RMK A01 T00791035  RH  045%=      5-min Rain = 0
KQU1 192124Z 32016G21KT 08/M04 A3028 RMK A01 T00791038  RH  043%=      5-min Rain = 0
KQU1 192125Z 33015G20KT 08/M04 A3028 RMK A01 T00771039  RH  044%=      5-min Rain = 0
KQU1 192126Z 31014G20KT 08/M04 A3028 RMK A01 T00761038  RH  044%=      5-min Rain = 0
KQU1 192127Z 33012KT 08/M04 A3028 RMK A01 T00771037  RH  044%=      5-min Rain = 0
KQU1 192128Z 31016KT 08/M04 A3028 RMK A01 T00771036  RH  044%=      5-min Rain = 0
KQU1 192129Z 32014G19KT 08/M04 A3028 RMK A01 T00771038  RH  044%=      5-min Rain = 0
KQU1 192130Z 34009KT 08/M04 A3028 RMK A01 T00781037  RH  044%=      5-min Rain = 0
KQU1 192131Z 34008KT 08/M04 A3028 RMK A01 T00771038  RH  044%=      5-min Rain = 0
KQU1 192132Z 32010KT 08/M04 A3028 RMK A01 T00771036  RH  045%=      5-min Rain = 0
KQU1 192133Z 35011KT 08/M04 A3027 RMK A01 T00781035  RH  045%=      5-min Rain = 0
KQU1 192134Z 35015KT 08/M04 A3027 RMK A01 T00781036  RH  044%=      5-min Rain = 0
KQU1 192135Z 33013G19KT 08/M04 A3027 RMK A01 T00761037  RH  044%=      5-min Rain = 0
KQU1 192136Z 33008KT 08/M04 A3027 RMK A01 T00761037  RH  045%=      5-min Rain = 0
KQU1 192137Z 34007KT 08/M04 A3027 RMK A01 T00761036  RH  045%=      5-min Rain = 0
KQU1 192138Z 33007KT 08/M04 A3027 RMK A01 T00771037  RH  044%=      5-min Rain = 0
KQU1 192139Z 33013G18KT 08/M04 A3027 RMK A01 T00781035  RH  045%=      5-min Rain = 0
KQU1 192140Z 33009KT 08/M04 A3027 RMK A01 T00771038  RH  044%=      5-min Rain = 0
KQU1 192141Z 33010KT 08/M04 A3027 RMK A01 T00771039  RH  044%=      5-min Rain = 0
KQU1 192142Z 34013KT 08/M04 A3027 RMK A01 T00771039  RH  044%=      5-min Rain = 0
KQU1 192143Z 34014KT 08/M04 A3027 RMK A01 T00771039  RH  044%=      5-min Rain = 0
KQU1 192144Z 33012KT 08/M04 A3027 RMK A01 T00761039  RH  044%=      5-min Rain = 0
KQU1 192145Z 00009G14KT 08/M04 A3027 RMK A01 T00771038  RH  044%=      5-min Rain = 0
KQU1 192146Z 36008G13KT 08/M04 A3027 RMK A01 T00781036  RH  044%=      5-min Rain = 0
KQU1 192147Z 35011KT 08/M04 A3027 RMK A01 T00781037  RH  044%=      5-min Rain = 0
KQU1 192148Z 34011KT 08/M04 A3027 RMK A01 T00781036  RH  044%=      5-min Rain = 0
KQU1 192149Z 34009KT 08/M04 A3027 RMK A01 T00781038  RH  044%=      5-min Rain = 0
KQU1 192150Z 36007G12KT 08/M03 A3027 RMK A01 T00791034  RH  045%=      5-min Rain = 0
KQU1 192151Z 35007KT 08/M04 A3027 RMK A01 T00791037  RH  044%=      5-min Rain = 0
KQU1 192152Z 36005G10KT 08/M04 A3027 RMK A01 T00791036  RH  044%=      5-min Rain = 0
KQU1 192153Z 34011KT 08/M04 A3027 RMK A01 T00801035  RH  044%=      5-min Rain = 0
KQU1 192154Z 35008KT 08/M04 A3027 RMK A01 T00791037  RH  044%=      5-min Rain = 0
KQU1 192155Z 32009KT 08/M04 A3027 RMK A01 T00801035  RH  044%=      5-min Rain = 0
KQU1 192156Z 33010KT 08/M04 A3027 RMK A01 T00811035  RH  044%=      5-min Rain = 0
KQU1 192157Z 33009KT 08/M04 A3027 RMK A01 T00811037  RH  043%=      5-min Rain = 0
KQU1 192158Z 34007KT 08/M04 A3027 RMK A01 T00801036  RH  044%=      5-min Rain = 0
KQU1 192159Z 34005KT 08/M03 A3027 RMK A01 T00811034  RH  044%=      5-min Rain = 0
KQU1 192200Z 34007KT 08/M04 A3027 RMK A01 T00811036  RH  044%=      5-min Rain = 0
KQU1 192201Z 33008KT 08/M04 A3027 RMK A01 T00811035  RH  044%=      5-min Rain = 0
KQU1 192202Z 33010KT 08/M04 A3027 RMK A01 T00821035  RH  044%=      5-min Rain = 0
KQU1 192203Z 33008KT 08/M04 A3027 RMK A01 T00821036  RH  043%=      5-min Rain = 0
KQU1 192204Z 33010KT 08/M04 A3027 RMK A01 T00821035  RH  043%=      5-min Rain = 0
KQU1 192205Z 32015KT 08/M04 A3027 RMK A01 T00821037  RH  043%=      5-min Rain = 0
KQU1 192206Z 32014KT 08/M04 A3027 RMK A01 T00811040  RH  042%=      5-min Rain = 0
KQU1 192207Z 32011KT 08/M04 A3027 RMK A01 T00801039  RH  043%=      5-min Rain = 0
KQU1 192208Z 32013KT 08/M04 A3027 RMK A01 T00811038  RH  043%=      5-min Rain = 0
KQU1 192209Z 33015KT 08/M04 A3027 RMK A01 T00801040  RH  042%=      5-min Rain = 0
KQU1 192210Z 32011KT 08/M04 A3027 RMK A01 T00801038  RH  043%=      5-min Rain = 0
KQU1 192211Z 34008KT 08/M04 A3027 RMK A01 T00811036  RH  044%=      5-min Rain = 0
KQU1 192212Z 35007KT 08/M04 A3027 RMK A01 T00811037  RH  043%=      5-min Rain = 0
KQU1 192213Z 35008KT 08/M03 A3027 RMK A01 T00811034  RH  044%=      5-min Rain = 0
KQU1 192214Z 00010KT 08/M04 A3027 RMK A01 T00821035  RH  043%=      5-min Rain = 0
KQU1 192215Z 36008KT 08/M04 A3027 RMK A01 T00821036  RH  043%=      5-min Rain = 0
KQU1 192216Z 00008KT 08/M04 A3027 RMK A01 T00821035  RH  043%=      5-min Rain = 0
KQU1 192217Z 35008KT 08/M03 A3027 RMK A01 T00821033  RH  044%=      5-min Rain = 0
KQU1 192218Z 34006KT 08/M03 A3027 RMK A01 T00831033  RH  044%=      5-min Rain = 0
KQU1 192219Z 35008G13KT 08/M04 A3027 RMK A01 T00841035  RH  043%=      5-min Rain = 0
KQU1 192220Z 36010KT 08/M04 A3027 RMK A01 T00831035  RH  043%=      5-min Rain = 0
KQU1 192221Z 35010KT 08/M04 A3027 RMK A01 T00831035  RH  043%=      5-min Rain = 0
KQU1 192222Z 34008KT 08/M04 A3027 RMK A01 T00831036  RH  043%=      5-min Rain = 0
KQU1 192223Z 34009KT 08/M04 A3027 RMK A01 T00831035  RH  043%=      5-min Rain = 0
KQU1 192224Z 32009KT 08/M04 A3027 RMK A01 T00831038  RH  042%=      5-min Rain = 0
KQU1 192225Z 33008KT 08/M04 A3027 RMK A01 T00831038  RH  042%=      5-min Rain = 0
KQU1 192226Z 33009KT 08/M04 A3027 RMK A01 T00831037  RH  042%=      5-min Rain = 0
KQU1 192227Z 34010KT 08/M04 A3027 RMK A01 T00831037  RH  042%=      5-min Rain = 0
KQU1 192228Z 33009KT 08/M04 A3027 RMK A01 T00831038  RH  042%=      5-min Rain = 0
KQU1 192229Z 33009KT 08/M04 A3027 RMK A01 T00831037  RH  042%=      5-min Rain = 0
KQU1 192230Z 34010KT 08/M04 A3027 RMK A01 T00831038  RH  042%=      5-min Rain = 0
KQU1 192231Z 33006KT 08/M04 A3027 RMK A01 T00831037  RH  042%=      5-min Rain = 0
KQU1 192232Z 34007KT 08/M04 A3027 RMK A01 T00831037  RH  042%=      5-min Rain = 0
KQU1 192233Z 34006KT 08/M04 A3027 RMK A01 T00831037  RH  042%=      5-min Rain = 0
KQU1 192234Z 36008KT 08/M04 A3027 RMK A01 T00841036  RH  043%=      5-min Rain = 0
KQU1 192235Z 00008KT 08/M04 A3027 RMK A01 T00841035  RH  043%=      5-min Rain = 0
KQU1 192236Z 35012KT 09/M04 A3027 RMK A01 T00851035  RH  043%=      5-min Rain = 0
KQU1 192237Z 36010KT 08/M04 A3027 RMK A01 T00841036  RH  042%=      5-min Rain = 0
KQU1 192238Z 36013KT 08/M04 A3027 RMK A01 T00841038  RH  042%=      5-min Rain = 0
KQU1 192239Z 35010G15KT 08/M04 A3027 RMK A01 T00831039  RH  042%=      5-min Rain = 0
KQU1 192240Z 35007KT 08/M04 A3027 RMK A01 T00831036  RH  043%=      5-min Rain = 0
KQU1 192241Z 35009KT 08/M04 A3027 RMK A01 T00831037  RH  043%=      5-min Rain = 0
KQU1 192242Z 35011KT 08/M04 A3027 RMK A01 T00831037  RH  043%=      5-min Rain = 0
KQU1 192243Z 35013KT 08/M04 A3027 RMK A01 T00831037  RH  043%=      5-min Rain = 0
KQU1 192244Z 36009KT 08/M04 A3028 RMK A01 T00831036  RH  043%=      5-min Rain = 0
KQU1 192245Z 36009G14KT 08/M04 A3028 RMK A01 T00831037  RH  042%=      5-min Rain = 0
KQU1 192246Z 00011KT 08/M04 A3028 RMK A01 T00831037  RH  043%=      5-min Rain = 0
KQU1 192247Z 35011KT 08/M04 A3028 RMK A01 T00831038  RH  042%=      5-min Rain = 0
KQU1 192248Z 34009KT 08/M04 A3028 RMK A01 T00831037  RH  042%=      5-min Rain = 0
KQU1 192249Z 34008KT 08/M04 A3028 RMK A01 T00831039  RH  042%=      5-min Rain = 0
KQU1 192250Z 34007KT 08/M04 A3028 RMK A01 T00831038  RH  042%=      5-min Rain = 0
KQU1 192251Z 01008KT 08/M04 A3028 RMK A01 T00831037  RH  042%=      5-min Rain = 0
KQU1 192252Z 33007KT 08/M04 A3028 RMK A01 T00841037  RH  042%=      5-min Rain = 0
KQU1 192253Z 34007KT 08/M04 A3028 RMK A01 T00841037  RH  042%=      5-min Rain = 0
KQU1 192254Z 34007KT 08/M04 A3028 RMK A01 T00841036  RH  042%=      5-min Rain = 0
KQU1 192255Z 33007KT 08/M04 A3028 RMK A01 T00841037  RH  042%=      5-min Rain = 0
KQU1 192256Z 33007KT 08/M04 A3028 RMK A01 T00841038  RH  042%=      5-min Rain = 0
KQU1 192257Z 34004KT 08/M04 A3028 RMK A01 T00841038  RH  042%=      5-min Rain = 0
KQU1 192258Z 00005KT 09/M04 A3028 RMK A01 T00851036  RH  042%=      5-min Rain = 0
KQU1 192259Z 34005KT 09/M04 A3028 RMK A01 T00851036  RH  042%=      5-min Rain = 0
KQU1 192300Z 32007KT 09/M04 A3028 RMK A01 T00851037  RH  042%=      5-min Rain = 0
KQU1 192301Z 32009KT 09/M04 A3028 RMK A01 T00851038  RH  042%=      5-min Rain = 0
KQU1 192302Z 32009KT 09/M04 A3028 RMK A01 T00851038  RH  042%=      5-min Rain = 0
KQU1 192303Z 33009KT 08/M04 A3027 RMK A01 T00841038  RH  042%=      5-min Rain = 0
KQU1 192304Z 33009KT 08/M04 A3027 RMK A01 T00841039  RH  042%=      5-min Rain = 0
KQU1 192305Z 33010KT 08/M04 A3027 RMK A01 T00841039  RH  042%=      5-min Rain = 0
KQU1 192306Z 34007KT 08/M04 A3027 RMK A01 T00841039  RH  042%=      5-min Rain = 0
KQU1 192307Z 34007KT 08/M04 A3027 RMK A01 T00831038  RH  042%=      5-min Rain = 0
KQU1 192308Z 33006KT 08/M04 A3027 RMK A01 T00831038  RH  042%=      5-min Rain = 0
KQU1 192309Z 34007KT 08/M04 A3027 RMK A01 T00831037  RH  042%=      5-min Rain = 0
KQU1 192310Z 33007KT 08/M04 A3028 RMK A01 T00831038  RH  042%=      5-min Rain = 0
KQU1 192311Z 32006KT 08/M04 A3028 RMK A01 T00841037  RH  043%=      5-min Rain = 0
KQU1 192312Z 33007KT 08/M04 A3027 RMK A01 T00841037  RH  042%=      5-min Rain = 0
KQU1 192313Z 35007KT 08/M04 A3028 RMK A01 T00841038  RH  042%=      5-min Rain = 0
KQU1 192314Z 33009KT 08/M04 A3028 RMK A01 T00841039  RH  042%=      5-min Rain = 0
KQU1 192315Z 33010KT 08/M04 A3028 RMK A01 T00831038  RH  042%=      5-min Rain = 0
KQU1 192316Z 33009KT 08/M04 A3028 RMK A01 T00831039  RH  042%=      5-min Rain = 0
KQU1 192317Z 33008KT 08/M04 A3028 RMK A01 T00831039  RH  042%=      5-min Rain = 0
KQU1 192318Z 34007KT 08/M04 A3028 RMK A01 T00831038  RH  042%=      5-min Rain = 0
KQU1 192319Z 34005KT 08/M04 A3028 RMK A01 T00831038  RH  042%=      5-min Rain = 0
KQU1 192320Z 01006KT 08/M04 A3028 RMK A01 T00831037  RH  042%=      5-min Rain = 0
KQU1 192321Z 00009KT 08/M04 A3027 RMK A01 T00831039  RH  042%=      5-min Rain = 0
KQU1 192322Z 34006KT 08/M04 A3028 RMK A01 T00831038  RH  042%=      5-min Rain = 0
KQU1 192323Z 34007KT 08/M04 A3027 RMK A01 T00821039  RH  042%=      5-min Rain = 0
KQU1 192324Z 35009KT 08/M04 A3027 RMK A01 T00821040  RH  042%=      5-min Rain = 0
KQU1 192325Z 35007KT 08/M04 A3028 RMK A01 T00821038  RH  043%=      5-min Rain = 0
KQU1 192326Z 35005KT 08/M04 A3027 RMK A01 T00821036  RH  043%=      5-min Rain = 0
KQU1 192327Z 36007KT 08/M04 A3027 RMK A01 T00811036  RH  043%=      5-min Rain = 0
KQU1 192328Z 01009KT 08/M04 A3027 RMK A01 T00811037  RH  043%=      5-min Rain = 0
KQU1 192329Z 36008KT 08/M04 A3027 RMK A01 T00811036  RH  044%=      5-min Rain = 0
KQU1 192330Z 36005KT 08/M04 A3028 RMK A01 T00801035  RH  044%=      5-min Rain = 0
KQU1 192331Z 35005KT 08/M03 A3028 RMK A01 T00801033  RH  045%=      5-min Rain = 0
KQU1 192332Z 35005KT 08/M03 A3028 RMK A01 T00801034  RH  045%=      5-min Rain = 0
KQU1 192333Z 35007KT 08/M04 A3028 RMK A01 T00791036  RH  044%=      5-min Rain = 0
KQU1 192334Z 35006G13KT 08/M04 A3028 RMK A01 T00791037  RH  044%=      5-min Rain = 0
KQU1 192335Z 34006KT 08/M04 A3028 RMK A01 T00791036  RH  044%=      5-min Rain = 0
KQU1 192336Z 34006KT 08/M04 A3028 RMK A01 T00791037  RH  044%=      5-min Rain = 0
KQU1 192337Z 35007KT 08/M04 A3028 RMK A01 T00781037  RH  044%=      5-min Rain = 0
KQU1 192338Z 35006KT 08/M04 A3028 RMK A01 T00781036  RH  044%=      5-min Rain = 0
KQU1 192339Z 35006KT 08/M04 A3028 RMK A01 T00781035  RH  045%=      5-min Rain = 0
KQU1 192340Z 35006KT 08/M04 A3028 RMK A01 T00771035  RH  045%=      5-min Rain = 0
KQU1 192341Z 35008KT 08/M04 A3028 RMK A01 T00771037  RH  044%=      5-min Rain = 0
KQU1 192342Z 35006KT 08/M04 A3028 RMK A01 T00771037  RH  044%=      5-min Rain = 0
KQU1 192343Z 35008KT 08/M04 A3028 RMK A01 T00761037  RH  045%=      5-min Rain = 0
KQU1 192344Z 35007KT 08/M04 A3028 RMK A01 T00761038  RH  044%=      5-min Rain = 0
KQU1 192345Z 36007KT 08/M04 A3028 RMK A01 T00761037  RH  044%=      5-min Rain = 0
KQU1 192346Z 35005KT 08/M04 A3028 RMK A01 T00761037  RH  045%=      5-min Rain = 0
KQU1 192347Z 35008KT 08/M04 A3028 RMK A01 T00761037  RH  045%=      5-min Rain = 0
KQU1 192348Z 35007KT 08/M04 A3028 RMK A01 T00751037  RH  045%=      5-min Rain = 0
KQU1 192349Z 35006KT 07/M04 A3028 RMK A01 T00741038  RH  045%=      5-min Rain = 0
KQU1 192350Z 36004KT 07/M04 A3028 RMK A01 T00731037  RH  045%=      5-min Rain = 0
KQU1 192351Z 35006KT 07/M04 A3028 RMK A01 T00721037  RH  046%=      5-min Rain = 0
KQU1 192352Z 35005KT 07/M04 A3028 RMK A01 T00721038  RH  046%=      5-min Rain = 0
KQU1 192353Z 00005KT 07/M04 A3028 RMK A01 T00711038  RH  046%=      5-min Rain = 0
KQU1 192354Z 01004KT 07/M04 A3028 RMK A01 T00701038  RH  046%=      5-min Rain = 0
KQU1 192355Z 00003KT 07/M04 A3028 RMK A01 T00701039  RH  046%=      5-min Rain = 0
KQU1 192356Z 00003KT 07/M04 A3028 RMK A01 T00691039  RH  046%=      5-min Rain = 0
KQU1 192357Z 01003KT 07/M04 A3028 RMK A01 T00681038  RH  047%=      5-min Rain = 0
KQU1 192358Z 00004KT 07/M04 A3028 RMK A01 T00671038  RH  047%=      5-min Rain = 0
KQU1 192359Z 36003KT 07/M04 A3028 RMK A01 T00671038  RH  047%=      5-min Rain = 0
KQU1 200000Z 36004KT 07/M04 A3028 RMK A01 T00661038  RH  047%=      5-min Rain = 0
KQU1 200001Z 36004KT 07/M04 A3028 RMK A01 T00651038  RH  048%=      5-min Rain = 0
KQU1 200002Z 35004KT 07/M04 A3028 RMK A01 T00651038  RH  048%=      5-min Rain = 0
KQU1 200003Z 35004KT 06/M04 A3028 RMK A01 T00641037  RH  049%=      5-min Rain = 0
KQU1 200004Z 36004KT 06/M04 A3028 RMK A01 T00631037  RH  049%=      5-min Rain = 0
KQU1 200005Z 35004KT 06/M04 A3028 RMK A01 T00621037  RH  049%=      5-min Rain = 0
KQU1 200006Z 36004KT 06/M04 A3028 RMK A01 T00611038  RH  049%=      5-min Rain = 0
KQU1 200007Z 00003KT 06/M04 A3028 RMK A01 T00611039  RH  049%=      5-min Rain = 0
KQU1 200008Z 35004KT 06/M04 A3028 RMK A01 T00601039  RH  049%=      5-min Rain = 0
KQU1 200009Z 35003KT 06/M04 A3028 RMK A01 T00591040  RH  049%=      5-min Rain = 0
KQU1 200010Z 36004KT 06/M04 A3028 RMK A01 T00581040  RH  049%=      5-min Rain = 0
KQU1 200011Z 01004KT 06/M04 A3028 RMK A01 T00581040  RH  049%=      5-min Rain = 0
KQU1 200012Z 00004KT 06/M04 A3028 RMK A01 T00571041  RH  049%=      5-min Rain = 0
KQU1 200013Z 36004KT 06/M04 A3028 RMK A01 T00561041  RH  050%=      5-min Rain = 0
KQU1 200014Z 01004KT 06/M04 A3028 RMK A01 T00561041  RH  050%=      5-min Rain = 0
KQU1 200015Z 01003KT 06/M04 A3028 RMK A01 T00551039  RH  051%=      5-min Rain = 0
KQU1 200016Z 01004KT 06/M04 A3028 RMK A01 T00551037  RH  051%=      5-min Rain = 0
KQU1 200017Z 01003KT 06/M04 A3028 RMK A01 T00551038  RH  051%=      5-min Rain = 0
KQU1 200018Z 01003KT 05/M04 A3028 RMK A01 T00541038  RH  051%=      5-min Rain = 0
KQU1 200019Z 03002KT 05/M04 A3028 RMK A01 T00541038  RH  051%=      5-min Rain = 0
KQU1 200020Z 01003KT 05/M04 A3028 RMK A01 T00531038  RH  052%=      5-min Rain = 0
KQU1 200021Z 02003KT 05/M04 A3028 RMK A01 T00531037  RH  052%=      5-min Rain = 0
KQU1 200022Z 01003KT 05/M04 A3028 RMK A01 T00521036  RH  053%=      5-min Rain = 0
KQU1 200023Z 01004KT 05/M04 A3028 RMK A01 T00521035  RH  053%=      5-min Rain = 0
KQU1 200024Z 01002KT 05/M03 A3028 RMK A01 T00511034  RH  054%=      5-min Rain = 0
KQU1 200025Z 01002KT 05/M03 A3028 RMK A01 T00511034  RH  054%=      5-min Rain = 0
KQU1 200026Z 04002KT 05/M03 A3028 RMK A01 T00501034  RH  054%=      5-min Rain = 0
KQU1 200027Z 03004KT 05/M03 A3028 RMK A01 T00491033  RH  055%=      5-min Rain = 0
KQU1 200028Z 03004KT 05/M03 A3028 RMK A01 T00491031  RH  056%=      5-min Rain = 0
KQU1 200029Z 02005KT 05/M03 A3028 RMK A01 T00491029  RH  057%=      5-min Rain = 0
KQU1 200030Z 02005KT 05/M03 A3028 RMK A01 T00491028  RH  057%=      5-min Rain = 0
KQU1 200031Z 02004KT 05/M03 A3028 RMK A01 T00491029  RH  057%=      5-min Rain = 0
KQU1 200032Z 03005KT 05/M03 A3028 RMK A01 T00491029  RH  057%=      5-min Rain = 0
KQU1 200033Z 02005KT 05/M03 A3028 RMK A01 T00491028  RH  057%=      5-min Rain = 0
KQU1 200034Z 03004KT 05/M03 A3028 RMK A01 T00491027  RH  058%=      5-min Rain = 0
KQU1 200035Z 02005KT 05/M03 A3028 RMK A01 T00491029  RH  057%=      5-min Rain = 0
KQU1 200036Z 02004KT 05/M03 A3028 RMK A01 T00491029  RH  057%=      5-min Rain = 0
KQU1 200037Z 02004KT 05/M03 A3028 RMK A01 T00481029  RH  057%=      5-min Rain = 0
KQU1 200038Z 03004KT 05/M03 A3028 RMK A01 T00481030  RH  057%=      5-min Rain = 0
KQU1 200039Z 02002KT 05/M03 A3028 RMK A01 T00481030  RH  057%=      5-min Rain = 0
KQU1 200040Z 01002KT 05/M03 A3028 RMK A01 T00481029  RH  057%=      5-min Rain = 0
KQU1 200041Z 34001KT 05/M03 A3028 RMK A01 T00471029  RH  058%=      5-min Rain = 0
KQU1 200042Z 00001KT 05/M03 A3028 RMK A01 T00471029  RH  058%=      5-min Rain = 0
KQU1 200043Z 00000KT 05/M03 A3028 RMK A01 T00461030  RH  058%=      5-min Rain = 0
KQU1 200044Z 00000KT 05/M03 A3028 RMK A01 T00461032  RH  057%=      5-min Rain = 0
KQU1 200045Z 00000KT 04/M04 A3028 RMK A01 T00441035  RH  056%=      5-min Rain = 0
KQU1 200046Z 00000KT 04/M04 A3028 RMK A01 T00421039  RH  056%=      5-min Rain = 0
KQU1 200047Z 26000KT 04/M04 A3028 RMK A01 T00371043  RH  056%=      5-min Rain = 0
KQU1 200048Z 26000KT 03/M04 A3029 RMK A01 T00331044  RH  057%=      5-min Rain = 0
KQU1 200049Z 30000KT 03/M04 A3029 RMK A01 T00301044  RH  058%=      5-min Rain = 0
KQU1 200050Z 32000KT 03/M04 A3029 RMK A01 T00291043  RH  059%=      5-min Rain = 0
KQU1 200051Z 31000KT 03/M04 A3029 RMK A01 T00271044  RH  059%=      5-min Rain = 0
KQU1 200052Z 33000KT 03/M05 A3029 RMK A01 T00261045  RH  060%=      5-min Rain = 0
KQU1 200053Z 36000KT 02/M05 A3029 RMK A01 T00241046  RH  060%=      5-min Rain = 0
KQU1 200054Z 00001KT 02/M05 A3029 RMK A01 T00221046  RH  061%=      5-min Rain = 0
KQU1 200055Z 00001KT 02/M04 A3029 RMK A01 T00221043  RH  062%=      5-min Rain = 0
KQU1 200056Z 01001KT 02/M04 A3029 RMK A01 T00241040  RH  063%=      5-min Rain = 0
KQU1 200057Z 02002KT 03/M04 A3029 RMK A01 T00261038  RH  063%=      5-min Rain = 0
KQU1 200058Z 02002KT 03/M04 A3029 RMK A01 T00281037  RH  062%=      5-min Rain = 0
KQU1 200059Z 01001KT 03/M04 A3029 RMK A01 T00291038  RH  062%=      5-min Rain = 0
KQU1 200100Z 01001KT 03/M04 A3029 RMK A01 T00291037  RH  062%=      5-min Rain = 0
KQU1 200101Z 01002KT 03/M04 A3029 RMK A01 T00301037  RH  061%=      5-min Rain = 0
KQU1 200102Z 01002KT 03/M04 A3029 RMK A01 T00311037  RH  061%=      5-min Rain = 0
KQU1 200103Z 00002KT 03/M04 A3029 RMK A01 T00311037  RH  061%=      5-min Rain = 0
KQU1 200104Z 00001KT 03/M04 A3029 RMK A01 T00311039  RH  060%=      5-min Rain = 0
KQU1 200105Z 35001KT 03/M04 A3029 RMK A01 T00301039  RH  061%=      5-min Rain = 0
KQU1 200106Z 36001KT 03/M04 A3029 RMK A01 T00291040  RH  060%=      5-min Rain = 0
KQU1 200107Z 36002KT 03/M04 A3029 RMK A01 T00281040  RH  061%=      5-min Rain = 0
KQU1 200108Z 36002KT 03/M04 A3029 RMK A01 T00271040  RH  061%=      5-min Rain = 0
KQU1 200109Z 33002KT 03/M04 A3029 RMK A01 T00261040  RH  062%=      5-min Rain = 0
KQU1 200110Z 32002KT 02/M04 A3029 RMK A01 T00241043  RH  061%=      5-min Rain = 0
KQU1 200111Z 31002KT 02/M04 A3029 RMK A01 T00211044  RH  062%=      5-min Rain = 0
KQU1 200112Z 30002KT 02/M05 A3029 RMK A01 T00181045  RH  063%=      5-min Rain = 0
KQU1 200113Z 32002KT 02/M05 A3029 RMK A01 T00161045  RH  064%=      5-min Rain = 0
KQU1 200114Z 34002KT 02/M04 A3029 RMK A01 T00151044  RH  065%=      5-min Rain = 0
KQU1 200115Z 35002KT 02/M04 A3029 RMK A01 T00151043  RH  065%=      5-min Rain = 0
KQU1 200116Z 35002KT 01/M04 A3029 RMK A01 T00141043  RH  066%=      5-min Rain = 0
KQU1 200117Z 35002KT 01/M04 A3029 RMK A01 T00141043  RH  066%=      5-min Rain = 0
KQU1 200118Z 34002KT 01/M04 A3029 RMK A01 T00131044  RH  066%=      5-min Rain = 0
KQU1 200119Z 35002KT 01/M04 A3029 RMK A01 T00121044  RH  066%=      5-min Rain = 0
KQU1 200120Z 35001KT 01/M05 A3029 RMK A01 T00111045  RH  066%=      5-min Rain = 0
KQU1 200121Z 35001KT 01/M05 A3029 RMK A01 T00101045  RH  066%=      5-min Rain = 0
KQU1 200122Z 35001KT 01/M05 A3028 RMK A01 T00091045  RH  067%=      5-min Rain = 0
KQU1 200123Z 35001KT 01/M05 A3028 RMK A01 T00091045  RH  067%=      5-min Rain = 0
KQU1 200124Z 36001KT 01/M04 A3028 RMK A01 T00081044  RH  068%=      5-min Rain = 0
KQU1 200125Z 00001KT 01/M04 A3028 RMK A01 T00081044  RH  068%=      5-min Rain = 0
KQU1 200126Z 35001KT 01/M04 A3028 RMK A01 T00081044  RH  068%=      5-min Rain = 0
KQU1 200127Z 36002KT 01/M04 A3028 RMK A01 T00071044  RH  068%=      5-min Rain = 0
KQU1 200128Z 00002KT 01/M05 A3028 RMK A01 T00071045  RH  068%=      5-min Rain = 0
KQU1 200129Z 35002KT 01/M05 A3027 RMK A01 T00051046  RH  069%=      5-min Rain = 0
KQU1 200130Z 01002KT 01/M04 A3027 RMK A01 T00051044  RH  070%=      5-min Rain = 0
KQU1 200131Z 02002KT 01/M04 A3027 RMK A01 T00061043  RH  070%=      5-min Rain = 0
KQU1 200132Z 02003KT 01/M04 A3027 RMK A01 T00071042  RH  070%=      5-min Rain = 0
KQU1 200133Z 02003KT 01/M04 A3027 RMK A01 T00081040  RH  070%=      5-min Rain = 0
KQU1 200134Z 03003KT 01/M04 A3027 RMK A01 T00091038  RH  071%=      5-min Rain = 0
KQU1 200135Z 03003KT 01/M04 A3027 RMK A01 T00091039  RH  070%=      5-min Rain = 0
KQU1 200136Z 03002KT 01/M04 A3027 RMK A01 T00091038  RH  071%=      5-min Rain = 0
KQU1 200137Z 02002KT 01/M04 A3027 RMK A01 T00091040  RH  070%=      5-min Rain = 0
KQU1 200138Z 28002KT 01/M04 A3027 RMK A01 T00071043  RH  069%=      5-min Rain = 0
KQU1 200139Z 27004KT 00/M05 A3027 RMK A01 T00041047  RH  069%=      5-min Rain = 0
KQU1 200140Z 25004KT 00/M05 A3027 RMK A01 T00011047  RH  070%=      5-min Rain = 0
KQU1 200141Z 26004KT 00/M05 A3027 RMK A01 T00011045  RH  071%=      5-min Rain = 0
KQU1 200142Z 27002KT 00/M04 A3027 RMK A01 T00021044  RH  071%=      5-min Rain = 0
KQU1 200143Z 27003KT 00/M04 A3027 RMK A01 T00021044  RH  071%=      5-min Rain = 0
KQU1 200144Z 26003KT 00/M04 A3027 RMK A01 T00031044  RH  071%=      5-min Rain = 0
KQU1 200145Z 29002KT 00/M04 A3027 RMK A01 T00021044  RH  071%=      5-min Rain = 0
KQU1 200146Z 31002KT 00/M04 A3027 RMK A01 T00021044  RH  071%=      5-min Rain = 0
KQU1 200147Z 31002KT 00/M04 A3027 RMK A01 T00031043  RH  071%=      5-min Rain = 0
KQU1 200148Z 32002KT 00/M04 A3027 RMK A01 T00031043  RH  071%=      5-min Rain = 0
KQU1 200149Z 33002KT 00/M04 A3027 RMK A01 T00031044  RH  071%=      5-min Rain = 0
KQU1 200150Z 33002KT 00/M04 A3027 RMK A01 T00031043  RH  071%=      5-min Rain = 0
KQU1 200151Z 32002KT 00/M04 A3027 RMK A01 T00041042  RH  071%=      5-min Rain = 0
KQU1 200152Z 32002KT 00/M04 A3027 RMK A01 T00041044  RH  070%=      5-min Rain = 0
KQU1 200153Z 31002KT 00/M05 A3027 RMK A01 T00021046  RH  070%=      5-min Rain = 0
KQU1 200154Z 30002KT 00/05 A3027 RMK A01 T00000-48  RH  070%=      5-min Rain = 0
KQU1 200155Z 29003KT M00/M05 A3027 RMK A01 T10021048  RH  071%=      5-min Rain = 0
KQU1 200156Z 29004KT M00/M05 A3027 RMK A01 T10031048  RH  072%=      5-min Rain = 0
KQU1 200157Z 29003KT M01/M05 A3027 RMK A01 T10051048  RH  072%=      5-min Rain = 0
KQU1 200158Z 30003KT M01/M05 A3027 RMK A01 T10051048  RH  073%=      5-min Rain = 0
KQU1 200159Z 32002KT M01/M05 A3027 RMK A01 T10061048  RH  073%=      5-min Rain = 0
KQU1 200200Z 33002KT M01/M05 A3027 RMK A01 T10071048  RH  074%=      5-min Rain = 0
KQU1 200201Z 33002KT M01/M05 A3027 RMK A01 T10061046  RH  075%=      5-min Rain = 0
KQU1 200202Z 35002KT M01/M05 A3027 RMK A01 T10051045  RH  075%=      5-min Rain = 0
KQU1 200203Z 00002KT M00/M04 A3027 RMK A01 T10041043  RH  075%=      5-min Rain = 0
KQU1 200204Z 03003KT M00/M04 A3027 RMK A01 T10021041  RH  075%=      5-min Rain = 0
KQU1 200205Z 04005KT M00/M04 A3026 RMK A01 T10011038  RH  076%=      5-min Rain = 0
KQU1 200206Z 04005KT 00/04 A3026 RMK A01 T00000-37  RH  076%=      5-min Rain = 0
KQU1 200207Z 04005KT 00/04 A3026 RMK A01 T00000-36  RH  076%=      5-min Rain = 0
KQU1 200208Z 04004KT 00/04 A3026 RMK A01 T00000-36  RH  077%=      5-min Rain = 0
KQU1 200209Z 04003KT 00/04 A3026 RMK A01 T00000-35  RH  077%=      5-min Rain = 0
KQU1 200210Z 04003KT 00/04 A3026 RMK A01 T00000-35  RH  077%=      5-min Rain = 0
KQU1 200211Z 04003KT 00/M04 A3027 RMK A01 T00021035  RH  076%=      5-min Rain = 0
KQU1 200212Z 04003KT 00/M04 A3027 RMK A01 T00021038  RH  075%=      5-min Rain = 0
KQU1 200213Z 04002KT M00/M04 A3027 RMK A01 T10011042  RH  074%=      5-min Rain = 0
KQU1 200214Z 02002KT M00/M04 A3027 RMK A01 T10031044  RH  074%=      5-min Rain = 0
KQU1 200215Z 03003KT M00/M04 A3027 RMK A01 T10031041  RH  075%=      5-min Rain = 0
KQU1 200216Z 03003KT M00/M04 A3027 RMK A01 T10011040  RH  075%=      5-min Rain = 0
KQU1 200217Z 01002KT M00/M04 A3027 RMK A01 T10011041  RH  074%=      5-min Rain = 0
KQU1 200218Z 02003KT 00/04 A3027 RMK A01 T00-00-40  RH  074%=      5-min Rain = 0
KQU1 200219Z 02002KT 00/04 A3027 RMK A01 T00000-40  RH  074%=      5-min Rain = 0
KQU1 200220Z 02003KT 00/04 A3027 RMK A01 T00-00-42  RH  073%=      5-min Rain = 0
KQU1 200221Z 02003KT M00/M04 A3028 RMK A01 T10021044  RH  073%=      5-min Rain = 0
KQU1 200222Z 01002KT M00/M05 A3028 RMK A01 T10031045  RH  074%=      5-min Rain = 0
KQU1 200223Z 00002KT M00/M05 A3028 RMK A01 T10041045  RH  074%=      5-min Rain = 0
KQU1 200224Z 32001KT M01/M05 A3028 RMK A01 T10061046  RH  074%=      5-min Rain = 0
KQU1 200225Z 32001KT M01/M05 A3028 RMK A01 T10071046  RH  075%=      5-min Rain = 0
KQU1 200226Z 31001KT M01/M05 A3028 RMK A01 T10071045  RH  075%=      5-min Rain = 0
KQU1 200227Z 28002KT M01/M05 A3029 RMK A01 T10071045  RH  076%=      5-min Rain = 0
KQU1 200228Z 28002KT M01/M04 A3029 RMK A01 T10071044  RH  076%=      5-min Rain = 0
KQU1 200229Z 28002KT M01/M04 A3029 RMK A01 T10061044  RH  076%=      5-min Rain = 0
KQU1 200230Z 27003KT M01/M04 A3029 RMK A01 T10061044  RH  076%=      5-min Rain = 0
KQU1 200231Z 27003KT M01/M04 A3029 RMK A01 T10061043  RH  076%=      5-min Rain = 0
KQU1 200232Z 28003KT M01/M04 A3029 RMK A01 T10061043  RH  076%=      5-min Rain = 0
KQU1 200233Z 28003KT M01/M04 A3029 RMK A01 T10051042  RH  076%=      5-min Rain = 0
KQU1 200234Z 30003KT M00/M04 A3029 RMK A01 T10041042  RH  076%=      5-min Rain = 0
KQU1 200235Z 31002KT M00/M04 A3029 RMK A01 T10031041  RH  075%=      5-min Rain = 0
KQU1 200236Z 32002KT M00/M04 A3029 RMK A01 T10031041  RH  075%=      5-min Rain = 0
KQU1 200237Z 32002KT M00/M04 A3029 RMK A01 T10031041  RH  075%=      5-min Rain = 0
KQU1 200238Z 33002KT M00/M04 A3029 RMK A01 T10021042  RH  075%=      5-min Rain = 0
KQU1 200239Z 33002KT M00/M04 A3029 RMK A01 T10021042  RH  075%=      5-min Rain = 0
KQU1 200240Z 32002KT M00/M04 A3029 RMK A01 T10021042  RH  074%=      5-min Rain = 0
KQU1 200241Z 32002KT M00/M04 A3029 RMK A01 T10031044  RH  074%=      5-min Rain = 0
KQU1 200242Z 32002KT M00/M05 A3029 RMK A01 T10041045  RH  074%=      5-min Rain = 0
KQU1 200243Z 33002KT M01/M05 A303 RMK A01 T10061045  RH  075%=      5-min Rain = 0
KQU1 200244Z 33003KT M01/M05 A303 RMK A01 T10071045  RH  075%=      5-min Rain = 0
KQU1 200245Z 33003KT M01/M05 A303 RMK A01 T10071045  RH  076%=      5-min Rain = 0
KQU1 200246Z 31003KT M01/M05 A303 RMK A01 T10081045  RH  076%=      5-min Rain = 0
KQU1 200247Z 31004KT M01/M05 A303 RMK A01 T10081045  RH  076%=      5-min Rain = 0
KQU1 200248Z 31004KT M01/M05 A303 RMK A01 T10091045  RH  076%=      5-min Rain = 0
KQU1 200249Z 32004KT M01/M05 A303 RMK A01 T10091045  RH  077%=      5-min Rain = 0
KQU1 200250Z 32003KT M01/M05 A303 RMK A01 T10101045  RH  077%=      5-min Rain = 0
KQU1 200251Z 32003KT M01/M05 A303 RMK A01 T10101046  RH  077%=      5-min Rain = 0
KQU1 200252Z 31004KT M01/M05 A303 RMK A01 T10111046  RH  077%=      5-min Rain = 0
KQU1 200253Z 31003KT M01/M05 A303 RMK A01 T10111046  RH  077%=      5-min Rain = 0
KQU1 200254Z 31003KT M01/M05 A303 RMK A01 T10111045  RH  078%=      5-min Rain = 0
KQU1 200255Z 30003KT M01/M05 A303 RMK A01 T10111045  RH  078%=      5-min Rain = 0
KQU1 200256Z 30003KT M01/M04 A303 RMK A01 T10101044  RH  078%=      5-min Rain = 0
KQU1 200257Z 29003KT M01/M04 A303 RMK A01 T10101044  RH  078%=      5-min Rain = 0
KQU1 200258Z 28003KT M01/M05 A303 RMK A01 T10111045  RH  078%=      5-min Rain = 0
KQU1 200259Z 27002KT M01/M04 A303 RMK A01 T10111044  RH  078%=      5-min Rain = 0
KQU1 200300Z 27003KT M01/M04 A303 RMK A01 T10111044  RH  078%=      5-min Rain = 0
KQU1 200301Z 27004KT M01/M04 A303 RMK A01 T10111044  RH  078%=      5-min Rain = 0
KQU1 200302Z 26004KT M01/M04 A3029 RMK A01 T10101044  RH  078%=      5-min Rain = 0
KQU1 200303Z 26003KT M01/M04 A3029 RMK A01 T10101043  RH  078%=      5-min Rain = 0
KQU1 200304Z 26003KT M01/M04 A3029 RMK A01 T10101043  RH  078%=      5-min Rain = 0
KQU1 200305Z 26003KT M01/M04 A3029 RMK A01 T10101044  RH  078%=      5-min Rain = 0
KQU1 200306Z 27002KT M01/M04 A3029 RMK A01 T10101044  RH  078%=      5-min Rain = 0
KQU1 200307Z 27003KT M01/M04 A3029 RMK A01 T10111044  RH  078%=      5-min Rain = 0
KQU1 200308Z 26002KT M01/M04 A3029 RMK A01 T10111044  RH  078%=      5-min Rain = 0
KQU1 200309Z 27002KT M01/M04 A3029 RMK A01 T10111044  RH  078%=      5-min Rain = 0
KQU1 200310Z 27002KT M01/M05 A3029 RMK A01 T10121045  RH  078%=      5-min Rain = 0
KQU1 200311Z 27003KT M01/M05 A3029 RMK A01 T10121045  RH  078%=      5-min Rain = 0
KQU1 200312Z 27003KT M01/M05 A3029 RMK A01 T10131045  RH  079%=      5-min Rain = 0
KQU1 200313Z 27003KT M01/M05 A3029 RMK A01 T10131045  RH  079%=      5-min Rain = 0
KQU1 200314Z 26003KT M01/M04 A3029 RMK A01 T10131044  RH  079%=      5-min Rain = 0
KQU1 200315Z 25002KT M01/M04 A303 RMK A01 T10121043  RH  079%=      5-min Rain = 0
KQU1 200316Z 25002KT M01/M04 A303 RMK A01 T10111043  RH  079%=      5-min Rain = 0
KQU1 200317Z 25002KT M01/M04 A303 RMK A01 T10111042  RH  079%=      5-min Rain = 0
KQU1 200318Z 25002KT M01/M04 A303 RMK A01 T10111042  RH  079%=      5-min Rain = 0
KQU1 200319Z 25002KT M01/M04 A303 RMK A01 T10111043  RH  079%=      5-min Rain = 0
KQU1 200320Z 25002KT M01/M04 A303 RMK A01 T10111043  RH  079%=      5-min Rain = 0
KQU1 200321Z 24001KT M01/M04 A303 RMK A01 T10111043  RH  079%=      5-min Rain = 0
KQU1 200322Z 24001KT M01/M04 A303 RMK A01 T10111043  RH  079%=      5-min Rain = 0
KQU1 200323Z 23001KT M01/M04 A303 RMK A01 T10111043  RH  079%=      5-min Rain = 0
KQU1 200324Z 22002KT M01/M04 A303 RMK A01 T10111044  RH  079%=      5-min Rain = 0
KQU1 200325Z 21002KT M01/M04 A303 RMK A01 T10121044  RH  079%=      5-min Rain = 0
KQU1 200326Z 20003KT M01/M05 A303 RMK A01 T10131045  RH  079%=      5-min Rain = 0
KQU1 200327Z 19003KT M01/M05 A303 RMK A01 T10131045  RH  079%=      5-min Rain = 0
KQU1 200328Z 18002KT M01/M05 A303 RMK A01 T10141046  RH  079%=      5-min Rain = 0
KQU1 200329Z 17002KT M02/M05 A3029 RMK A01 T10151046  RH  079%=      5-min Rain = 0
KQU1 200330Z 16001KT M02/M05 A3029 RMK A01 T10151046  RH  079%=      5-min Rain = 0
KQU1 200331Z 16002KT M02/M05 A3029 RMK A01 T10161047  RH  079%=      5-min Rain = 0
KQU1 200332Z 16001KT M02/M05 A3029 RMK A01 T10171047  RH  080%=      5-min Rain = 0
KQU1 200333Z 18001KT M02/M05 A3029 RMK A01 T10171047  RH  080%=      5-min Rain = 0
KQU1 200334Z 19002KT M02/M05 A3029 RMK A01 T10181048  RH  080%=      5-min Rain = 0
KQU1 200335Z 19002KT M02/M05 A303 RMK A01 T10191048  RH  081%=      5-min Rain = 0
KQU1 200336Z 19002KT M02/M05 A303 RMK A01 T10191046  RH  081%=      5-min Rain = 0
KQU1 200337Z 18003KT M02/M04 A303 RMK A01 T10171044  RH  082%=      5-min Rain = 0
KQU1 200338Z 19004KT M02/M04 A303 RMK A01 T10151042  RH  082%=      5-min Rain = 0
KQU1 200339Z 19005KT M01/M04 A303 RMK A01 T10131041  RH  082%=      5-min Rain = 0
KQU1 200340Z 19005KT M01/M04 A303 RMK A01 T10121041  RH  081%=      5-min Rain = 0
KQU1 200341Z 19005KT M01/M04 A3029 RMK A01 T10121042  RH  080%=      5-min Rain = 0
KQU1 200342Z 19005KT M01/M04 A3029 RMK A01 T10121042  RH  080%=      5-min Rain = 0
KQU1 200343Z 19005KT M01/M04 A3029 RMK A01 T10121042  RH  080%=      5-min Rain = 0
KQU1 200344Z 19004KT M01/M04 A3029 RMK A01 T10121042  RH  080%=      5-min Rain = 0
KQU1 200345Z 19004KT M01/M04 A3029 RMK A01 T10111042  RH  080%=      5-min Rain = 0
KQU1 200346Z 19004KT M01/M04 A3029 RMK A01 T10111041  RH  080%=      5-min Rain = 0
KQU1 200347Z 19004KT M01/M04 A303 RMK A01 T10111042  RH  079%=      5-min Rain = 0
KQU1 200348Z 19005KT M01/M04 A303 RMK A01 T10111043  RH  079%=      5-min Rain = 0
KQU1 200349Z 19006KT M01/M04 A3029 RMK A01 T10121043  RH  079%=      5-min Rain = 0
KQU1 200350Z 19006KT M01/M04 A3029 RMK A01 T10121043  RH  079%=      5-min Rain = 0
KQU1 200351Z 19006KT M01/M04 A3029 RMK A01 T10111040  RH  081%=      5-min Rain = 0
KQU1 200352Z 19006KT M01/M04 A303 RMK A01 T10081038  RH  080%=      5-min Rain = 0
KQU1 200353Z 19005KT M01/M04 A303 RMK A01 T10061038  RH  079%=      5-min Rain = 0
KQU1 200354Z 19005KT M01/M04 A303 RMK A01 T10061039  RH  078%=      5-min Rain = 0
KQU1 200355Z 19004KT M01/M04 A3029 RMK A01 T10061040  RH  078%=      5-min Rain = 0
KQU1 200356Z 18004KT M01/M04 A3029 RMK A01 T10061039  RH  078%=      5-min Rain = 0
KQU1 200357Z 18004KT M01/M04 A3029 RMK A01 T10051039  RH  078%=      5-min Rain = 0
KQU1 200358Z 18004KT M01/M04 A3029 RMK A01 T10051040  RH  078%=      5-min Rain = 0
KQU1 200359Z 18004KT M01/M04 A3029 RMK A01 T10061040  RH  078%=      5-min Rain = 0
KQU1 200400Z 19004KT M01/M04 A3029 RMK A01 T10061040  RH  078%=      5-min Rain = 0
KQU1 200401Z 19005KT M01/M04 A3029 RMK A01 T10051039  RH  078%=      5-min Rain = 0
KQU1 200402Z 19005KT M00/M04 A3029 RMK A01 T10041038  RH  078%=      5-min Rain = 0
KQU1 200403Z 19004KT M00/M04 A303 RMK A01 T10031038  RH  077%=      5-min Rain = 0
KQU1 200404Z 19004KT M00/M04 A303 RMK A01 T10031039  RH  077%=      5-min Rain = 0
KQU1 200405Z 20003KT M00/M04 A303 RMK A01 T10031039  RH  077%=      5-min Rain = 0
KQU1 200406Z 20003KT M00/M04 A3031 RMK A01 T10031039  RH  077%=      5-min Rain = 0
KQU1 200407Z 19003KT M00/M04 A303 RMK A01 T10031039  RH  076%=      5-min Rain = 0
KQU1 200408Z 19003KT M00/M04 A303 RMK A01 T10031039  RH  076%=      5-min Rain = 0
KQU1 200409Z 19003KT M00/M04 A303 RMK A01 T10031039  RH  076%=      5-min Rain = 0
KQU1 200410Z 20003KT M00/M04 A303 RMK A01 T10031040  RH  076%=      5-min Rain = 0
KQU1 200411Z 21003KT M00/M04 A3031 RMK A01 T10041041  RH  076%=      5-min Rain = 0
KQU1 200412Z 20003KT M01/M04 A303 RMK A01 T10061043  RH  076%=      5-min Rain = 0
KQU1 200413Z 19004KT M01/M04 A303 RMK A01 T10071042  RH  077%=      5-min Rain = 0
KQU1 200414Z 19004KT M01/M04 A303 RMK A01 T10071042  RH  077%=      5-min Rain = 0
KQU1 200415Z 19004KT M01/M04 A303 RMK A01 T10071042  RH  078%=      5-min Rain = 0
KQU1 200416Z 18004KT M01/M04 A303 RMK A01 T10071040  RH  078%=      5-min Rain = 0
KQU1 200417Z 20004KT M01/M04 A303 RMK A01 T10051038  RH  078%=      5-min Rain = 0
KQU1 200418Z 19005KT M00/M04 A303 RMK A01 T10041040  RH  077%=      5-min Rain = 0
KQU1 200419Z 19005KT M00/M04 A3029 RMK A01 T10041039  RH  077%=      5-min Rain = 0
KQU1 200420Z 17006KT M00/M04 A3029 RMK A01 T10021038  RH  077%=      5-min Rain = 0
KQU1 200421Z 17005KT M00/M04 A3029 RMK A01 T10011038  RH  076%=      5-min Rain = 0
KQU1 200422Z 17005KT M00/M04 A3029 RMK A01 T10011037  RH  076%=      5-min Rain = 0
KQU1 200423Z 17005KT 00/04 A3029 RMK A01 T00000-36  RH  076%=      5-min Rain = 0
KQU1 200424Z 15005KT 00/M04 A3029 RMK A01 T00011037  RH  076%=      5-min Rain = 0
KQU1 200425Z 15006KT 00/M04 A3028 RMK A01 T00011037  RH  076%=      5-min Rain = 0
KQU1 200426Z 16005KT 00/M04 A3028 RMK A01 T00011037  RH  075%=      5-min Rain = 0
KQU1 200427Z 17005KT 00/M04 A3028 RMK A01 T00021037  RH  075%=      5-min Rain = 0
KQU1 200428Z 17006KT 00/M04 A3028 RMK A01 T00031037  RH  075%=      5-min Rain = 0
KQU1 200429Z 17006KT 00/M04 A3029 RMK A01 T00031037  RH  074%=      5-min Rain = 0
KQU1 200430Z 17006KT 00/M04 A3029 RMK A01 T00031038  RH  074%=      5-min Rain = 0
KQU1 200431Z 17006KT 00/M04 A3029 RMK A01 T00021039  RH  074%=      5-min Rain = 0
KQU1 200432Z 17007KT 00/M04 A3029 RMK A01 T00021039  RH  074%=      5-min Rain = 0
KQU1 200433Z 17007KT 00/M04 A3029 RMK A01 T00011039  RH  074%=      5-min Rain = 0
KQU1 200434Z 17008KT 00/04 A3029 RMK A01 T00000-40  RH  074%=      5-min Rain = 0
KQU1 200435Z 17008KT M00/M04 A3029 RMK A01 T10011040  RH  075%=      5-min Rain = 0
KQU1 200436Z 17007KT M00/M04 A3028 RMK A01 T10011040  RH  075%=      5-min Rain = 0
KQU1 200437Z 17007KT M00/M04 A3028 RMK A01 T10021040  RH  075%=      5-min Rain = 0
KQU1 200438Z 17006KT M00/M04 A3028 RMK A01 T10021040  RH  075%=      5-min Rain = 0
KQU1 200439Z 18007KT M00/M04 A3028 RMK A01 T10031041  RH  075%=      5-min Rain = 0
KQU1 200440Z 18007KT M00/M04 A3028 RMK A01 T10041041  RH  076%=      5-min Rain = 0
KQU1 200441Z 18007KT M00/M04 A3028 RMK A01 T10041042  RH  076%=      5-min Rain = 0
KQU1 200442Z 19007KT M01/M04 A3028 RMK A01 T10051042  RH  076%=      5-min Rain = 0
KQU1 200443Z 18007KT M01/M04 A3029 RMK A01 T10061042  RH  077%=      5-min Rain = 0
KQU1 200444Z 17007KT M01/M04 A3029 RMK A01 T10071042  RH  077%=      5-min Rain = 0
KQU1 200445Z 17008KT M01/M04 A3029 RMK A01 T10071041  RH  077%=      5-min Rain = 0
KQU1 200446Z 17008KT M01/M04 A3029 RMK A01 T10061041  RH  078%=      5-min Rain = 0
KQU1 200447Z 17009KT M01/M04 A3029 RMK A01 T10051040  RH  077%=      5-min Rain = 0
KQU1 200448Z 17009KT M01/M04 A3028 RMK A01 T10051040  RH  077%=      5-min Rain = 0
KQU1 200449Z 17008KT M01/M04 A3028 RMK A01 T10051041  RH  077%=      5-min Rain = 0
KQU1 200450Z 18008KT M01/M04 A3029 RMK A01 T10051041  RH  077%=      5-min Rain = 0
KQU1 200451Z 19008KT M01/M04 A3029 RMK A01 T10061042  RH  077%=      5-min Rain = 0
KQU1 200452Z 18008KT M01/M04 A3029 RMK A01 T10071043  RH  077%=      5-min Rain = 0
KQU1 200453Z 18008KT M01/M04 A3029 RMK A01 T10081042  RH  077%=      5-min Rain = 0
KQU1 200454Z 18007KT M01/M04 A3029 RMK A01 T10081043  RH  077%=      5-min Rain = 0
KQU1 200455Z 17006KT M01/M04 A3029 RMK A01 T10091043  RH  078%=      5-min Rain = 0
KQU1 200456Z 17006KT M01/M04 A3029 RMK A01 T10091043  RH  078%=      5-min Rain = 0
KQU1 200457Z 17006KT M01/M04 A3029 RMK A01 T10091043  RH  078%=      5-min Rain = 0
KQU1 200458Z 17007KT M01/M04 A3029 RMK A01 T10101044  RH  078%=      5-min Rain = 0
KQU1 200459Z 17007KT M01/M05 A3028 RMK A01 T10111045  RH  078%=      5-min Rain = 0
KQU1 200500Z 16007KT M01/M05 A3028 RMK A01 T10121045  RH  078%=      5-min Rain = 0
KQU1 200501Z 16007KT M01/M05 A3029 RMK A01 T10131045  RH  079%=      5-min Rain = 0
KQU1 200502Z 17006KT M01/M04 A3029 RMK A01 T10131044  RH  079%=      5-min Rain = 0
KQU1 200503Z 17006KT M01/M04 A3029 RMK A01 T10131044  RH  079%=      5-min Rain = 0
KQU1 200504Z 17006KT M01/M04 A303 RMK A01 T10131044  RH  079%=      5-min Rain = 0
KQU1 200505Z 17006KT M01/M04 A303 RMK A01 T10121043  RH  080%=      5-min Rain = 0
KQU1 200506Z 17006KT M01/M04 A3029 RMK A01 T10121043  RH  079%=      5-min Rain = 0
KQU1 200507Z 17006KT M01/M04 A303 RMK A01 T10121043  RH  079%=      5-min Rain = 0
KQU1 200508Z 16006KT M01/M04 A303 RMK A01 T10121044  RH  079%=      5-min Rain = 0
KQU1 200509Z 16006KT M01/M04 A303 RMK A01 T10121044  RH  079%=      5-min Rain = 0
KQU1 200510Z 16006KT M01/M04 A303 RMK A01 T10121044  RH  079%=      5-min Rain = 0
KQU1 200511Z 16006KT M01/M04 A3029 RMK A01 T10131044  RH  079%=      5-min Rain = 0
KQU1 200512Z 16007KT M01/M04 A3029 RMK A01 T10121044  RH  079%=      5-min Rain = 0
KQU1 200513Z 16007KT M01/M04 A303 RMK A01 T10121043  RH  079%=      5-min Rain = 0
KQU1 200514Z 17006KT M01/M04 A303 RMK A01 T10121043  RH  079%=      5-min Rain = 0
KQU1 200515Z 17005KT M01/M04 A3031 RMK A01 T10121044  RH  079%=      5-min Rain = 0
KQU1 200516Z 17005KT M01/M04 A3031 RMK A01 T10121044  RH  079%=      5-min Rain = 0
KQU1 200517Z 17005KT M01/M04 A3031 RMK A01 T10131044  RH  079%=      5-min Rain = 0
KQU1 200518Z 17005KT M01/M05 A3031 RMK A01 T10131045  RH  079%=      5-min Rain = 0
KQU1 200519Z 16005KT M01/M05 A303 RMK A01 T10141046  RH  079%=      5-min Rain = 0
KQU1 200520Z 17006KT M02/M05 A303 RMK A01 T10151046  RH  079%=      5-min Rain = 0
KQU1 200521Z 17006KT M02/M05 A303 RMK A01 T10161047  RH  079%=      5-min Rain = 0
KQU1 200522Z 18007KT M02/M05 A303 RMK A01 T10161047  RH  080%=      5-min Rain = 0
KQU1 200523Z 18009KT M02/M05 A303 RMK A01 T10161046  RH  080%=      5-min Rain = 0
KQU1 200524Z 18009KT M02/M05 A303 RMK A01 T10161045  RH  080%=      5-min Rain = 0
KQU1 200525Z 19010KT M02/M05 A303 RMK A01 T10151045  RH  080%=      5-min Rain = 0
KQU1 200526Z 18009KT M01/M05 A303 RMK A01 T10141045  RH  080%=      5-min Rain = 0
KQU1 200527Z 18008KT M01/M05 A303 RMK A01 T10141045  RH  079%=      5-min Rain = 0
KQU1 200528Z 17007KT M01/M05 A303 RMK A01 T10141045  RH  079%=      5-min Rain = 0
KQU1 200529Z 17007KT M01/M05 A303 RMK A01 T10141046  RH  079%=      5-min Rain = 0
KQU1 200530Z 18007KT M01/M05 A303 RMK A01 T10141046  RH  079%=      5-min Rain = 0
KQU1 200531Z 18007KT M01/M05 A3031 RMK A01 T10141046  RH  079%=      5-min Rain = 0
KQU1 200532Z 18007KT M02/M05 A3031 RMK A01 T10151047  RH  079%=      5-min Rain = 0
KQU1 200533Z 18007KT M02/M05 A3031 RMK A01 T10161048  RH  079%=      5-min Rain = 0
KQU1 200534Z 18007KT M02/M05 A3031 RMK A01 T10171048  RH  079%=      5-min Rain = 0
KQU1 200535Z 18007KT M02/M05 A3032 RMK A01 T10171048  RH  079%=      5-min Rain = 0
KQU1 200536Z 19007KT M02/M05 A3032 RMK A01 T10181049  RH  079%=      5-min Rain = 0
KQU1 200537Z 19007KT M02/M05 A3032 RMK A01 T10181048  RH  080%=      5-min Rain = 0
KQU1 200538Z 18007KT M02/M05 A3032 RMK A01 T10181049  RH  080%=      5-min Rain = 0
KQU1 200539Z 18007KT M02/M05 A3032 RMK A01 T10191049  RH  080%=      5-min Rain = 0
KQU1 200540Z 17008KT M02/M05 A3031 RMK A01 T10191049  RH  080%=      5-min Rain = 0
KQU1 200541Z 17007KT M02/M05 A3031 RMK A01 T10191049  RH  080%=      5-min Rain = 0
KQU1 200542Z 17007KT M02/M05 A3031 RMK A01 T10191050  RH  080%=      5-min Rain = 0
KQU1 200543Z 17007KT M02/M05 A3031 RMK A01 T10191050  RH  079%=      5-min Rain = 0
KQU1 200544Z 17007KT M02/M05 A3031 RMK A01 T10191050  RH  079%=      5-min Rain = 0
KQU1 200545Z 18007KT M02/M05 A3031 RMK A01 T10191050  RH  079%=      5-min Rain = 0
KQU1 200546Z 18007KT M02/M05 A3031 RMK A01 T10191050  RH  079%=      5-min Rain = 0
KQU1 200547Z 17006KT M02/M05 A3031 RMK A01 T10181050  RH  079%=      5-min Rain = 0
KQU1 200548Z 16007KT M02/M05 A3031 RMK A01 T10181051  RH  078%=      5-min Rain = 0
KQU1 200549Z 16006KT M02/M05 A3031 RMK A01 T10181052  RH  078%=      5-min Rain = 0
KQU1 200550Z 16007KT M02/M05 A3031 RMK A01 T10181053  RH  077%=      5-min Rain = 0
KQU1 200551Z 17007KT M02/M05 A3031 RMK A01 T10191054  RH  077%=      5-min Rain = 0
KQU1 200552Z 17007KT M02/M05 A3032 RMK A01 T10201054  RH  078%=      5-min Rain = 0
KQU1 200553Z 17006KT M02/M05 A3032 RMK A01 T10201054  RH  078%=      5-min Rain = 0
KQU1 200554Z 17007KT M02/M05 A3032 RMK A01 T10201054  RH  078%=      5-min Rain = 0
KQU1 200555Z 17007KT M02/M05 A3032 RMK A01 T10201054  RH  077%=      5-min Rain = 0
KQU1 200556Z 17007KT M02/M06 A3032 RMK A01 T10201055  RH  077%=      5-min Rain = 0
KQU1 200557Z 17007KT M02/M06 A3032 RMK A01 T10201055  RH  077%=      5-min Rain = 0
KQU1 200558Z 17007KT M02/M06 A3032 RMK A01 T10201055  RH  077%=      5-min Rain = 0
KQU1 200559Z 17006KT M02/M06 A3032 RMK A01 T10201056  RH  077%=      5-min Rain = 0

Page generated in 0.1217 seconds.